<?xml version="1.0" encoding="UTF-8" standalone="no" ?>
<gpx xmlns="http://www.topografix.com/GPX/1/1" xmlns:xsi="http://www.w3.org/2001/XMLSchema-instance" xsi:schemaLocation="http://www.topografix.com/GPX/1/1 http://www.topografix.com/GPX/1/1/gpx.xsd" version="1.1" creator="VisuGPX - https://www.visugpx.com">
  <metadata>
    <name>2021-01-06 12:59:48 Rando sud est pont l evque</name>
    <desc><![CDATA[Randonnée sud est pont l eveque du 06 01 2021]]></desc>
  </metadata>
  <trk>
    <name><![CDATA[2021-01-06 12:59:48 Jour]]></name>
    <trkseg>
      <trkpt lat="49.28109" lon="0.17736">
        <ele>-17.65</ele>
        <time>2021-01-06T11:59:48Z</time>
      </trkpt>
      <trkpt lat="49.28083" lon="0.17803">
        <ele>-17.65</ele>
        <time>2021-01-06T12:00:11Z</time>
      </trkpt>
      <trkpt lat="49.28081" lon="0.17803">
        <ele>-20.05</ele>
        <time>2021-01-06T12:00:34Z</time>
      </trkpt>
      <trkpt lat="49.2808" lon="0.17802">
        <ele>-18.13</ele>
        <time>2021-01-06T12:00:38Z</time>
      </trkpt>
      <trkpt lat="49.2808" lon="0.17801">
        <ele>-20.05</ele>
        <time>2021-01-06T12:00:40Z</time>
      </trkpt>
      <trkpt lat="49.28079" lon="0.17804">
        <ele>-20.05</ele>
        <time>2021-01-06T12:01:02Z</time>
      </trkpt>
      <trkpt lat="49.28079" lon="0.17797">
        <ele>-22.93</ele>
        <time>2021-01-06T12:01:23Z</time>
      </trkpt>
      <trkpt lat="49.28079" lon="0.17789">
        <ele>-22.93</ele>
        <time>2021-01-06T12:01:43Z</time>
      </trkpt>
      <trkpt lat="49.28078" lon="0.17778">
        <ele>-22.93</ele>
        <time>2021-01-06T12:02:09Z</time>
      </trkpt>
      <trkpt lat="49.2807" lon="0.17765">
        <ele>-22.93</ele>
        <time>2021-01-06T12:02:32Z</time>
      </trkpt>
      <trkpt lat="49.28061" lon="0.17765">
        <ele>-22.93</ele>
        <time>2021-01-06T12:02:55Z</time>
      </trkpt>
      <trkpt lat="49.28058" lon="0.17761">
        <ele>-22.93</ele>
        <time>2021-01-06T12:03:01Z</time>
      </trkpt>
      <trkpt lat="49.28044" lon="0.17769">
        <ele>-22.93</ele>
        <time>2021-01-06T12:03:19Z</time>
      </trkpt>
      <trkpt lat="49.28046" lon="0.17767">
        <ele>-22.93</ele>
        <time>2021-01-06T12:03:38Z</time>
      </trkpt>
      <trkpt lat="49.28053" lon="0.17775">
        <ele>-22.93</ele>
        <time>2021-01-06T12:03:58Z</time>
      </trkpt>
      <trkpt lat="49.28044" lon="0.17786">
        <ele>-22.93</ele>
        <time>2021-01-06T12:04:19Z</time>
      </trkpt>
      <trkpt lat="49.28034" lon="0.17783">
        <ele>-22.93</ele>
        <time>2021-01-06T12:04:36Z</time>
      </trkpt>
      <trkpt lat="49.28047" lon="0.17759">
        <ele>-22.93</ele>
        <time>2021-01-06T12:05:12Z</time>
      </trkpt>
      <trkpt lat="49.28043" lon="0.17754">
        <ele>-22.93</ele>
        <time>2021-01-06T12:05:21Z</time>
      </trkpt>
      <trkpt lat="49.28038" lon="0.17727">
        <ele>-22.93</ele>
        <time>2021-01-06T12:06:39Z</time>
      </trkpt>
      <trkpt lat="49.28055" lon="0.17788">
        <ele>-20.53</ele>
        <time>2021-01-06T12:06:54Z</time>
      </trkpt>
      <trkpt lat="49.2805" lon="0.17815">
        <ele>-20.53</ele>
        <time>2021-01-06T12:07:09Z</time>
      </trkpt>
      <trkpt lat="49.28049" lon="0.17823">
        <ele>-21.49</ele>
        <time>2021-01-06T12:07:14Z</time>
      </trkpt>
      <trkpt lat="49.28057" lon="0.17835">
        <ele>-22.45</ele>
        <time>2021-01-06T12:07:34Z</time>
      </trkpt>
      <trkpt lat="49.28053" lon="0.17862">
        <ele>-24.38</ele>
        <time>2021-01-06T12:07:53Z</time>
      </trkpt>
      <trkpt lat="49.28035" lon="0.17885">
        <ele>-24.86</ele>
        <time>2021-01-06T12:08:09Z</time>
      </trkpt>
      <trkpt lat="49.28005" lon="0.17896">
        <ele>-24.86</ele>
        <time>2021-01-06T12:08:31Z</time>
      </trkpt>
      <trkpt lat="49.27983" lon="0.17899">
        <ele>-25.34</ele>
        <time>2021-01-06T12:08:50Z</time>
      </trkpt>
      <trkpt lat="49.27955" lon="0.17918">
        <ele>-25.34</ele>
        <time>2021-01-06T12:09:09Z</time>
      </trkpt>
      <trkpt lat="49.27935" lon="0.17935">
        <ele>-21.49</ele>
        <time>2021-01-06T12:09:20Z</time>
      </trkpt>
      <trkpt lat="49.27933" lon="0.17936">
        <ele>-18.13</ele>
        <time>2021-01-06T12:09:22Z</time>
      </trkpt>
      <trkpt lat="49.2793" lon="0.17937">
        <ele>-14.76</ele>
        <time>2021-01-06T12:09:24Z</time>
      </trkpt>
      <trkpt lat="49.27925" lon="0.17938">
        <ele>-10.92</ele>
        <time>2021-01-06T12:09:27Z</time>
      </trkpt>
      <trkpt lat="49.27922" lon="0.17939">
        <ele>-7.07</ele>
        <time>2021-01-06T12:09:30Z</time>
      </trkpt>
      <trkpt lat="49.27918" lon="0.17939">
        <ele>-4.19</ele>
        <time>2021-01-06T12:09:33Z</time>
      </trkpt>
      <trkpt lat="49.27914" lon="0.1794">
        <ele>-0.82</ele>
        <time>2021-01-06T12:09:36Z</time>
      </trkpt>
      <trkpt lat="49.2791" lon="0.17941">
        <ele>0.62</ele>
        <time>2021-01-06T12:09:39Z</time>
      </trkpt>
      <trkpt lat="49.27905" lon="0.17942">
        <ele>3.98</ele>
        <time>2021-01-06T12:09:44Z</time>
      </trkpt>
      <trkpt lat="49.27897" lon="0.17943">
        <ele>6.87</ele>
        <time>2021-01-06T12:09:51Z</time>
      </trkpt>
      <trkpt lat="49.2787" lon="0.17942">
        <ele>9.75</ele>
        <time>2021-01-06T12:10:12Z</time>
      </trkpt>
      <trkpt lat="49.27845" lon="0.1794">
        <ele>9.75</ele>
        <time>2021-01-06T12:10:35Z</time>
      </trkpt>
      <trkpt lat="49.27838" lon="0.17956">
        <ele>9.27</ele>
        <time>2021-01-06T12:10:51Z</time>
      </trkpt>
      <trkpt lat="49.2784" lon="0.17963">
        <ele>7.83</ele>
        <time>2021-01-06T12:10:56Z</time>
      </trkpt>
      <trkpt lat="49.27841" lon="0.17994">
        <ele>6.39</ele>
        <time>2021-01-06T12:11:19Z</time>
      </trkpt>
      <trkpt lat="49.27843" lon="0.18018">
        <ele>5.42</ele>
        <time>2021-01-06T12:11:41Z</time>
      </trkpt>
      <trkpt lat="49.2784" lon="0.18052">
        <ele>4.46</ele>
        <time>2021-01-06T12:12:02Z</time>
      </trkpt>
      <trkpt lat="49.27836" lon="0.18091">
        <ele>3.5</ele>
        <time>2021-01-06T12:12:22Z</time>
      </trkpt>
      <trkpt lat="49.27835" lon="0.18116">
        <ele>2.54</ele>
        <time>2021-01-06T12:12:39Z</time>
      </trkpt>
      <trkpt lat="49.27829" lon="0.18159">
        <ele>1.1</ele>
        <time>2021-01-06T12:12:59Z</time>
      </trkpt>
      <trkpt lat="49.27834" lon="0.18197">
        <ele>-0.82</ele>
        <time>2021-01-06T12:13:21Z</time>
      </trkpt>
      <trkpt lat="49.27834" lon="0.18198">
        <ele>-0.82</ele>
        <time>2021-01-06T12:13:22Z</time>
      </trkpt>
      <trkpt lat="49.27844" lon="0.18231">
        <ele>-2.27</ele>
        <time>2021-01-06T12:13:44Z</time>
      </trkpt>
      <trkpt lat="49.27849" lon="0.18265">
        <ele>-4.67</ele>
        <time>2021-01-06T12:14:04Z</time>
      </trkpt>
      <trkpt lat="49.27859" lon="0.18297">
        <ele>-7.07</ele>
        <time>2021-01-06T12:14:24Z</time>
      </trkpt>
      <trkpt lat="49.27875" lon="0.18318">
        <ele>-8.03</ele>
        <time>2021-01-06T12:14:43Z</time>
      </trkpt>
      <trkpt lat="49.27896" lon="0.18328">
        <ele>-9</ele>
        <time>2021-01-06T12:15:04Z</time>
      </trkpt>
      <trkpt lat="49.27906" lon="0.18338">
        <ele>-10.44</ele>
        <time>2021-01-06T12:15:20Z</time>
      </trkpt>
      <trkpt lat="49.27895" lon="0.18352">
        <ele>-11.88</ele>
        <time>2021-01-06T12:15:38Z</time>
      </trkpt>
      <trkpt lat="49.27876" lon="0.18372">
        <ele>-12.84</ele>
        <time>2021-01-06T12:15:58Z</time>
      </trkpt>
      <trkpt lat="49.27865" lon="0.18387">
        <ele>-13.32</ele>
        <time>2021-01-06T12:16:16Z</time>
      </trkpt>
      <trkpt lat="49.27855" lon="0.18412">
        <ele>-13.8</ele>
        <time>2021-01-06T12:16:33Z</time>
      </trkpt>
      <trkpt lat="49.27851" lon="0.18432">
        <ele>-13.8</ele>
        <time>2021-01-06T12:16:51Z</time>
      </trkpt>
      <trkpt lat="49.27849" lon="0.18465">
        <ele>-14.28</ele>
        <time>2021-01-06T12:17:08Z</time>
      </trkpt>
      <trkpt lat="49.27849" lon="0.18485">
        <ele>-14.28</ele>
        <time>2021-01-06T12:17:19Z</time>
      </trkpt>
      <trkpt lat="49.27849" lon="0.18516">
        <ele>-14.28</ele>
        <time>2021-01-06T12:17:36Z</time>
      </trkpt>
      <trkpt lat="49.2784" lon="0.18538">
        <ele>-13.8</ele>
        <time>2021-01-06T12:17:50Z</time>
      </trkpt>
      <trkpt lat="49.27831" lon="0.18552">
        <ele>-13.8</ele>
        <time>2021-01-06T12:18:04Z</time>
      </trkpt>
      <trkpt lat="49.27821" lon="0.18571">
        <ele>-14.28</ele>
        <time>2021-01-06T12:18:21Z</time>
      </trkpt>
      <trkpt lat="49.27818" lon="0.18579">
        <ele>-14.28</ele>
        <time>2021-01-06T12:18:26Z</time>
      </trkpt>
      <trkpt lat="49.27807" lon="0.18606">
        <ele>-14.28</ele>
        <time>2021-01-06T12:18:42Z</time>
      </trkpt>
      <trkpt lat="49.27794" lon="0.18632">
        <ele>-13.8</ele>
        <time>2021-01-06T12:18:58Z</time>
      </trkpt>
      <trkpt lat="49.2778" lon="0.18653">
        <ele>-13.8</ele>
        <time>2021-01-06T12:19:15Z</time>
      </trkpt>
      <trkpt lat="49.2776" lon="0.1867">
        <ele>-13.32</ele>
        <time>2021-01-06T12:19:33Z</time>
      </trkpt>
      <trkpt lat="49.27742" lon="0.18685">
        <ele>-13.32</ele>
        <time>2021-01-06T12:19:51Z</time>
      </trkpt>
      <trkpt lat="49.27724" lon="0.18702">
        <ele>-13.32</ele>
        <time>2021-01-06T12:20:10Z</time>
      </trkpt>
      <trkpt lat="49.27723" lon="0.18704">
        <ele>-13.32</ele>
        <time>2021-01-06T12:20:12Z</time>
      </trkpt>
      <trkpt lat="49.27716" lon="0.18714">
        <ele>-11.88</ele>
        <time>2021-01-06T12:20:20Z</time>
      </trkpt>
      <trkpt lat="49.27704" lon="0.18745">
        <ele>-11.4</ele>
        <time>2021-01-06T12:20:41Z</time>
      </trkpt>
      <trkpt lat="49.27696" lon="0.18773">
        <ele>-10.44</ele>
        <time>2021-01-06T12:20:59Z</time>
      </trkpt>
      <trkpt lat="49.27691" lon="0.18792">
        <ele>-9.96</ele>
        <time>2021-01-06T12:21:13Z</time>
      </trkpt>
      <trkpt lat="49.27683" lon="0.18822">
        <ele>-9.48</ele>
        <time>2021-01-06T12:21:32Z</time>
      </trkpt>
      <trkpt lat="49.27677" lon="0.18845">
        <ele>-8.51</ele>
        <time>2021-01-06T12:21:48Z</time>
      </trkpt>
      <trkpt lat="49.27667" lon="0.18871">
        <ele>-7.55</ele>
        <time>2021-01-06T12:22:06Z</time>
      </trkpt>
      <trkpt lat="49.2766" lon="0.18892">
        <ele>-7.07</ele>
        <time>2021-01-06T12:22:19Z</time>
      </trkpt>
      <trkpt lat="49.2766" lon="0.18908">
        <ele>-6.59</ele>
        <time>2021-01-06T12:22:33Z</time>
      </trkpt>
      <trkpt lat="49.27657" lon="0.18916">
        <ele>-6.59</ele>
        <time>2021-01-06T12:22:41Z</time>
      </trkpt>
      <trkpt lat="49.27636" lon="0.18933">
        <ele>-6.11</ele>
        <time>2021-01-06T12:23:00Z</time>
      </trkpt>
      <trkpt lat="49.27619" lon="0.18952">
        <ele>-6.11</ele>
        <time>2021-01-06T12:23:19Z</time>
      </trkpt>
      <trkpt lat="49.27603" lon="0.18973">
        <ele>-5.63</ele>
        <time>2021-01-06T12:23:37Z</time>
      </trkpt>
      <trkpt lat="49.27585" lon="0.18997">
        <ele>-5.63</ele>
        <time>2021-01-06T12:23:58Z</time>
      </trkpt>
      <trkpt lat="49.27567" lon="0.19022">
        <ele>-7.07</ele>
        <time>2021-01-06T12:24:18Z</time>
      </trkpt>
      <trkpt lat="49.27548" lon="0.19046">
        <ele>-8.03</ele>
        <time>2021-01-06T12:24:39Z</time>
      </trkpt>
      <trkpt lat="49.27531" lon="0.19068">
        <ele>-8.51</ele>
        <time>2021-01-06T12:24:58Z</time>
      </trkpt>
      <trkpt lat="49.27514" lon="0.19089">
        <ele>-9.48</ele>
        <time>2021-01-06T12:25:17Z</time>
      </trkpt>
      <trkpt lat="49.27502" lon="0.19108">
        <ele>-9</ele>
        <time>2021-01-06T12:25:36Z</time>
      </trkpt>
      <trkpt lat="49.27482" lon="0.1913">
        <ele>-9</ele>
        <time>2021-01-06T12:25:54Z</time>
      </trkpt>
      <trkpt lat="49.27467" lon="0.19149">
        <ele>-9</ele>
        <time>2021-01-06T12:26:10Z</time>
      </trkpt>
      <trkpt lat="49.2745" lon="0.19171">
        <ele>-9</ele>
        <time>2021-01-06T12:26:30Z</time>
      </trkpt>
      <trkpt lat="49.27435" lon="0.19188">
        <ele>-8.51</ele>
        <time>2021-01-06T12:26:48Z</time>
      </trkpt>
      <trkpt lat="49.27421" lon="0.19204">
        <ele>-8.51</ele>
        <time>2021-01-06T12:27:05Z</time>
      </trkpt>
      <trkpt lat="49.2741" lon="0.19221">
        <ele>-8.03</ele>
        <time>2021-01-06T12:27:19Z</time>
      </trkpt>
      <trkpt lat="49.27412" lon="0.19231">
        <ele>-9.48</ele>
        <time>2021-01-06T12:27:32Z</time>
      </trkpt>
      <trkpt lat="49.27412" lon="0.19233">
        <ele>-9</ele>
        <time>2021-01-06T12:27:40Z</time>
      </trkpt>
      <trkpt lat="49.2741" lon="0.19239">
        <ele>-9</ele>
        <time>2021-01-06T12:27:44Z</time>
      </trkpt>
      <trkpt lat="49.27394" lon="0.19261">
        <ele>-9.48</ele>
        <time>2021-01-06T12:28:04Z</time>
      </trkpt>
      <trkpt lat="49.27376" lon="0.19284">
        <ele>-9</ele>
        <time>2021-01-06T12:28:24Z</time>
      </trkpt>
      <trkpt lat="49.27358" lon="0.19308">
        <ele>-9</ele>
        <time>2021-01-06T12:28:45Z</time>
      </trkpt>
      <trkpt lat="49.27342" lon="0.1933">
        <ele>-9</ele>
        <time>2021-01-06T12:29:01Z</time>
      </trkpt>
      <trkpt lat="49.27321" lon="0.19358">
        <ele>-9</ele>
        <time>2021-01-06T12:29:23Z</time>
      </trkpt>
      <trkpt lat="49.27304" lon="0.19385">
        <ele>-8.51</ele>
        <time>2021-01-06T12:29:44Z</time>
      </trkpt>
      <trkpt lat="49.27288" lon="0.19409">
        <ele>-8.51</ele>
        <time>2021-01-06T12:30:05Z</time>
      </trkpt>
      <trkpt lat="49.27276" lon="0.19426">
        <ele>-8.03</ele>
        <time>2021-01-06T12:30:22Z</time>
      </trkpt>
      <trkpt lat="49.2726" lon="0.19451">
        <ele>-8.03</ele>
        <time>2021-01-06T12:30:40Z</time>
      </trkpt>
      <trkpt lat="49.27244" lon="0.19479">
        <ele>-7.55</ele>
        <time>2021-01-06T12:31:00Z</time>
      </trkpt>
      <trkpt lat="49.27231" lon="0.195">
        <ele>-7.55</ele>
        <time>2021-01-06T12:31:17Z</time>
      </trkpt>
      <trkpt lat="49.2722" lon="0.19523">
        <ele>-7.07</ele>
        <time>2021-01-06T12:31:35Z</time>
      </trkpt>
      <trkpt lat="49.27205" lon="0.19545">
        <ele>-7.07</ele>
        <time>2021-01-06T12:31:53Z</time>
      </trkpt>
      <trkpt lat="49.27191" lon="0.19566">
        <ele>-6.59</ele>
        <time>2021-01-06T12:32:12Z</time>
      </trkpt>
      <trkpt lat="49.27177" lon="0.19592">
        <ele>-6.59</ele>
        <time>2021-01-06T12:32:31Z</time>
      </trkpt>
      <trkpt lat="49.27165" lon="0.19615">
        <ele>-6.59</ele>
        <time>2021-01-06T12:32:48Z</time>
      </trkpt>
      <trkpt lat="49.2715" lon="0.1964">
        <ele>-6.11</ele>
        <time>2021-01-06T12:33:08Z</time>
      </trkpt>
      <trkpt lat="49.27137" lon="0.19665">
        <ele>-6.11</ele>
        <time>2021-01-06T12:33:27Z</time>
      </trkpt>
      <trkpt lat="49.27124" lon="0.19696">
        <ele>-4.67</ele>
        <time>2021-01-06T12:33:48Z</time>
      </trkpt>
      <trkpt lat="49.27112" lon="0.19724">
        <ele>-4.19</ele>
        <time>2021-01-06T12:34:08Z</time>
      </trkpt>
      <trkpt lat="49.27105" lon="0.19753">
        <ele>-4.19</ele>
        <time>2021-01-06T12:34:26Z</time>
      </trkpt>
      <trkpt lat="49.27095" lon="0.19786">
        <ele>-3.71</ele>
        <time>2021-01-06T12:34:48Z</time>
      </trkpt>
      <trkpt lat="49.27089" lon="0.19809">
        <ele>-3.71</ele>
        <time>2021-01-06T12:35:04Z</time>
      </trkpt>
      <trkpt lat="49.27086" lon="0.19824">
        <ele>-3.71</ele>
        <time>2021-01-06T12:35:14Z</time>
      </trkpt>
      <trkpt lat="49.27067" lon="0.19835">
        <ele>-2.75</ele>
        <time>2021-01-06T12:35:31Z</time>
      </trkpt>
      <trkpt lat="49.27047" lon="0.19849">
        <ele>-2.27</ele>
        <time>2021-01-06T12:35:49Z</time>
      </trkpt>
      <trkpt lat="49.2704" lon="0.19853">
        <ele>-2.27</ele>
        <time>2021-01-06T12:35:55Z</time>
      </trkpt>
      <trkpt lat="49.27023" lon="0.19877">
        <ele>-2.27</ele>
        <time>2021-01-06T12:36:14Z</time>
      </trkpt>
      <trkpt lat="49.27008" lon="0.19897">
        <ele>-1.3</ele>
        <time>2021-01-06T12:36:32Z</time>
      </trkpt>
      <trkpt lat="49.26995" lon="0.19907">
        <ele>0.14</ele>
        <time>2021-01-06T12:36:47Z</time>
      </trkpt>
      <trkpt lat="49.26991" lon="0.19911">
        <ele>1.1</ele>
        <time>2021-01-06T12:36:51Z</time>
      </trkpt>
      <trkpt lat="49.26983" lon="0.19923">
        <ele>-0.34</ele>
        <time>2021-01-06T12:37:02Z</time>
      </trkpt>
      <trkpt lat="49.26975" lon="0.19934">
        <ele>-0.82</ele>
        <time>2021-01-06T12:37:16Z</time>
      </trkpt>
      <trkpt lat="49.26963" lon="0.19947">
        <ele>-0.82</ele>
        <time>2021-01-06T12:37:33Z</time>
      </trkpt>
      <trkpt lat="49.26946" lon="0.19968">
        <ele>-0.34</ele>
        <time>2021-01-06T12:37:51Z</time>
      </trkpt>
      <trkpt lat="49.26933" lon="0.19979">
        <ele>-0.34</ele>
        <time>2021-01-06T12:38:07Z</time>
      </trkpt>
      <trkpt lat="49.26924" lon="0.19996">
        <ele>1.1</ele>
        <time>2021-01-06T12:38:22Z</time>
      </trkpt>
      <trkpt lat="49.26921" lon="0.2">
        <ele>1.1</ele>
        <time>2021-01-06T12:38:26Z</time>
      </trkpt>
      <trkpt lat="49.26901" lon="0.2002">
        <ele>1.58</ele>
        <time>2021-01-06T12:38:44Z</time>
      </trkpt>
      <trkpt lat="49.26885" lon="0.2004">
        <ele>2.54</ele>
        <time>2021-01-06T12:39:02Z</time>
      </trkpt>
      <trkpt lat="49.26871" lon="0.20059">
        <ele>3.02</ele>
        <time>2021-01-06T12:39:19Z</time>
      </trkpt>
      <trkpt lat="49.26856" lon="0.20082">
        <ele>4.46</ele>
        <time>2021-01-06T12:39:38Z</time>
      </trkpt>
      <trkpt lat="49.26841" lon="0.20103">
        <ele>5.42</ele>
        <time>2021-01-06T12:39:57Z</time>
      </trkpt>
      <trkpt lat="49.26833" lon="0.20123">
        <ele>5.91</ele>
        <time>2021-01-06T12:40:13Z</time>
      </trkpt>
      <trkpt lat="49.26821" lon="0.20141">
        <ele>6.39</ele>
        <time>2021-01-06T12:40:31Z</time>
      </trkpt>
      <trkpt lat="49.26815" lon="0.20149">
        <ele>6.87</ele>
        <time>2021-01-06T12:40:43Z</time>
      </trkpt>
      <trkpt lat="49.26807" lon="0.20159">
        <ele>8.31</ele>
        <time>2021-01-06T12:40:59Z</time>
      </trkpt>
      <trkpt lat="49.26802" lon="0.20175">
        <ele>8.79</ele>
        <time>2021-01-06T12:41:17Z</time>
      </trkpt>
      <trkpt lat="49.26785" lon="0.20198">
        <ele>10.23</ele>
        <time>2021-01-06T12:41:39Z</time>
      </trkpt>
      <trkpt lat="49.2677" lon="0.2023">
        <ele>12.63</ele>
        <time>2021-01-06T12:42:01Z</time>
      </trkpt>
      <trkpt lat="49.26767" lon="0.20249">
        <ele>15.52</ele>
        <time>2021-01-06T12:42:21Z</time>
      </trkpt>
      <trkpt lat="49.26759" lon="0.20266">
        <ele>17.92</ele>
        <time>2021-01-06T12:42:43Z</time>
      </trkpt>
      <trkpt lat="49.26744" lon="0.20282">
        <ele>20.32</ele>
        <time>2021-01-06T12:43:05Z</time>
      </trkpt>
      <trkpt lat="49.26723" lon="0.20294">
        <ele>22.25</ele>
        <time>2021-01-06T12:43:27Z</time>
      </trkpt>
      <trkpt lat="49.26704" lon="0.20303">
        <ele>25.61</ele>
        <time>2021-01-06T12:43:51Z</time>
      </trkpt>
      <trkpt lat="49.26687" lon="0.20309">
        <ele>28.02</ele>
        <time>2021-01-06T12:44:13Z</time>
      </trkpt>
      <trkpt lat="49.26674" lon="0.2031">
        <ele>28.02</ele>
        <time>2021-01-06T12:44:32Z</time>
      </trkpt>
      <trkpt lat="49.26671" lon="0.20311">
        <ele>28.02</ele>
        <time>2021-01-06T12:44:37Z</time>
      </trkpt>
      <trkpt lat="49.26654" lon="0.20309">
        <ele>29.94</ele>
        <time>2021-01-06T12:44:55Z</time>
      </trkpt>
      <trkpt lat="49.26646" lon="0.20306">
        <ele>29.94</ele>
        <time>2021-01-06T12:45:02Z</time>
      </trkpt>
      <trkpt lat="49.26633" lon="0.20316">
        <ele>29.94</ele>
        <time>2021-01-06T12:45:19Z</time>
      </trkpt>
      <trkpt lat="49.26628" lon="0.20342">
        <ele>28.5</ele>
        <time>2021-01-06T12:45:39Z</time>
      </trkpt>
      <trkpt lat="49.26625" lon="0.20354">
        <ele>28.5</ele>
        <time>2021-01-06T12:45:46Z</time>
      </trkpt>
      <trkpt lat="49.26622" lon="0.20384">
        <ele>28.5</ele>
        <time>2021-01-06T12:46:02Z</time>
      </trkpt>
      <trkpt lat="49.26628" lon="0.20415">
        <ele>28.98</ele>
        <time>2021-01-06T12:46:20Z</time>
      </trkpt>
      <trkpt lat="49.26636" lon="0.20447">
        <ele>28.98</ele>
        <time>2021-01-06T12:46:40Z</time>
      </trkpt>
      <trkpt lat="49.26641" lon="0.20477">
        <ele>28.02</ele>
        <time>2021-01-06T12:46:56Z</time>
      </trkpt>
      <trkpt lat="49.26642" lon="0.20509">
        <ele>27.05</ele>
        <time>2021-01-06T12:47:16Z</time>
      </trkpt>
      <trkpt lat="49.26642" lon="0.20499">
        <ele>27.05</ele>
        <time>2021-01-06T12:47:30Z</time>
      </trkpt>
      <trkpt lat="49.26641" lon="0.20475">
        <ele>28.5</ele>
        <time>2021-01-06T12:47:46Z</time>
      </trkpt>
      <trkpt lat="49.26641" lon="0.20473">
        <ele>28.5</ele>
        <time>2021-01-06T12:47:47Z</time>
      </trkpt>
      <trkpt lat="49.26633" lon="0.20438">
        <ele>29.46</ele>
        <time>2021-01-06T12:48:06Z</time>
      </trkpt>
      <trkpt lat="49.26623" lon="0.20406">
        <ele>29.94</ele>
        <time>2021-01-06T12:48:28Z</time>
      </trkpt>
      <trkpt lat="49.26622" lon="0.204">
        <ele>29.94</ele>
        <time>2021-01-06T12:48:51Z</time>
      </trkpt>
      <trkpt lat="49.26621" lon="0.20391">
        <ele>30.42</ele>
        <time>2021-01-06T12:49:13Z</time>
      </trkpt>
      <trkpt lat="49.2662" lon="0.20372">
        <ele>30.9</ele>
        <time>2021-01-06T12:49:24Z</time>
      </trkpt>
      <trkpt lat="49.26624" lon="0.20341">
        <ele>30.9</ele>
        <time>2021-01-06T12:49:43Z</time>
      </trkpt>
      <trkpt lat="49.26627" lon="0.20314">
        <ele>30.9</ele>
        <time>2021-01-06T12:50:01Z</time>
      </trkpt>
      <trkpt lat="49.26626" lon="0.20287">
        <ele>32.82</ele>
        <time>2021-01-06T12:50:16Z</time>
      </trkpt>
      <trkpt lat="49.26623" lon="0.20269">
        <ele>33.3</ele>
        <time>2021-01-06T12:50:33Z</time>
      </trkpt>
      <trkpt lat="49.26616" lon="0.20264">
        <ele>34.26</ele>
        <time>2021-01-06T12:50:59Z</time>
      </trkpt>
      <trkpt lat="49.26597" lon="0.20273">
        <ele>35.23</ele>
        <time>2021-01-06T12:51:18Z</time>
      </trkpt>
      <trkpt lat="49.26573" lon="0.20289">
        <ele>36.19</ele>
        <time>2021-01-06T12:51:40Z</time>
      </trkpt>
      <trkpt lat="49.26564" lon="0.20296">
        <ele>36.67</ele>
        <time>2021-01-06T12:51:49Z</time>
      </trkpt>
      <trkpt lat="49.26545" lon="0.2031">
        <ele>37.63</ele>
        <time>2021-01-06T12:52:07Z</time>
      </trkpt>
      <trkpt lat="49.26521" lon="0.20326">
        <ele>38.59</ele>
        <time>2021-01-06T12:52:29Z</time>
      </trkpt>
      <trkpt lat="49.26497" lon="0.20337">
        <ele>39.55</ele>
        <time>2021-01-06T12:52:52Z</time>
      </trkpt>
      <trkpt lat="49.26474" lon="0.20349">
        <ele>39.55</ele>
        <time>2021-01-06T12:53:15Z</time>
      </trkpt>
      <trkpt lat="49.26451" lon="0.20364">
        <ele>39.55</ele>
        <time>2021-01-06T12:53:36Z</time>
      </trkpt>
      <trkpt lat="49.26429" lon="0.20367">
        <ele>38.59</ele>
        <time>2021-01-06T12:53:56Z</time>
      </trkpt>
      <trkpt lat="49.26411" lon="0.20379">
        <ele>38.11</ele>
        <time>2021-01-06T12:54:16Z</time>
      </trkpt>
      <trkpt lat="49.26397" lon="0.20383">
        <ele>37.63</ele>
        <time>2021-01-06T12:54:30Z</time>
      </trkpt>
      <trkpt lat="49.26375" lon="0.20387">
        <ele>37.63</ele>
        <time>2021-01-06T12:54:51Z</time>
      </trkpt>
      <trkpt lat="49.26363" lon="0.2039">
        <ele>37.15</ele>
        <time>2021-01-06T12:55:10Z</time>
      </trkpt>
      <trkpt lat="49.26361" lon="0.2039">
        <ele>37.15</ele>
        <time>2021-01-06T12:55:16Z</time>
      </trkpt>
      <trkpt lat="49.26333" lon="0.20393">
        <ele>36.19</ele>
        <time>2021-01-06T12:55:39Z</time>
      </trkpt>
      <trkpt lat="49.26335" lon="0.20405">
        <ele>36.67</ele>
        <time>2021-01-06T12:55:52Z</time>
      </trkpt>
      <trkpt lat="49.26334" lon="0.20437">
        <ele>36.67</ele>
        <time>2021-01-06T12:56:12Z</time>
      </trkpt>
      <trkpt lat="49.26343" lon="0.20474">
        <ele>38.11</ele>
        <time>2021-01-06T12:56:33Z</time>
      </trkpt>
      <trkpt lat="49.2636" lon="0.20498">
        <ele>37.15</ele>
        <time>2021-01-06T12:56:53Z</time>
      </trkpt>
      <trkpt lat="49.26375" lon="0.20513">
        <ele>36.19</ele>
        <time>2021-01-06T12:57:12Z</time>
      </trkpt>
      <trkpt lat="49.26381" lon="0.20521">
        <ele>35.71</ele>
        <time>2021-01-06T12:57:20Z</time>
      </trkpt>
      <trkpt lat="49.26391" lon="0.20529">
        <ele>35.23</ele>
        <time>2021-01-06T12:57:28Z</time>
      </trkpt>
      <trkpt lat="49.26414" lon="0.20554">
        <ele>34.26</ele>
        <time>2021-01-06T12:57:51Z</time>
      </trkpt>
      <trkpt lat="49.26426" lon="0.20565">
        <ele>33.78</ele>
        <time>2021-01-06T12:58:10Z</time>
      </trkpt>
      <trkpt lat="49.26428" lon="0.20567">
        <ele>33.78</ele>
        <time>2021-01-06T12:58:27Z</time>
      </trkpt>
      <trkpt lat="49.26429" lon="0.20567">
        <ele>34.26</ele>
        <time>2021-01-06T12:58:33Z</time>
      </trkpt>
      <trkpt lat="49.26429" lon="0.20569">
        <ele>33.3</ele>
        <time>2021-01-06T12:58:41Z</time>
      </trkpt>
      <trkpt lat="49.2643" lon="0.20564">
        <ele>34.26</ele>
        <time>2021-01-06T12:59:08Z</time>
      </trkpt>
      <trkpt lat="49.26419" lon="0.20562">
        <ele>34.26</ele>
        <time>2021-01-06T12:59:28Z</time>
      </trkpt>
      <trkpt lat="49.26396" lon="0.20538">
        <ele>35.71</ele>
        <time>2021-01-06T12:59:52Z</time>
      </trkpt>
      <trkpt lat="49.26375" lon="0.20523">
        <ele>37.15</ele>
        <time>2021-01-06T13:00:12Z</time>
      </trkpt>
      <trkpt lat="49.2637" lon="0.20517">
        <ele>37.63</ele>
        <time>2021-01-06T13:00:17Z</time>
      </trkpt>
      <trkpt lat="49.26352" lon="0.20494">
        <ele>38.59</ele>
        <time>2021-01-06T13:00:38Z</time>
      </trkpt>
      <trkpt lat="49.26337" lon="0.20468">
        <ele>39.07</ele>
        <time>2021-01-06T13:00:56Z</time>
      </trkpt>
      <trkpt lat="49.26337" lon="0.20434">
        <ele>38.59</ele>
        <time>2021-01-06T13:01:15Z</time>
      </trkpt>
      <trkpt lat="49.26335" lon="0.20401">
        <ele>37.15</ele>
        <time>2021-01-06T13:01:34Z</time>
      </trkpt>
      <trkpt lat="49.26348" lon="0.20386">
        <ele>37.15</ele>
        <time>2021-01-06T13:01:49Z</time>
      </trkpt>
      <trkpt lat="49.26354" lon="0.20358">
        <ele>38.59</ele>
        <time>2021-01-06T13:02:07Z</time>
      </trkpt>
      <trkpt lat="49.26355" lon="0.20325">
        <ele>39.55</ele>
        <time>2021-01-06T13:02:28Z</time>
      </trkpt>
      <trkpt lat="49.26362" lon="0.2029">
        <ele>42.44</ele>
        <time>2021-01-06T13:02:54Z</time>
      </trkpt>
      <trkpt lat="49.26364" lon="0.20262">
        <ele>44.36</ele>
        <time>2021-01-06T13:03:15Z</time>
      </trkpt>
      <trkpt lat="49.26362" lon="0.20235">
        <ele>46.76</ele>
        <time>2021-01-06T13:03:35Z</time>
      </trkpt>
      <trkpt lat="49.26358" lon="0.20204">
        <ele>49.16</ele>
        <time>2021-01-06T13:03:59Z</time>
      </trkpt>
      <trkpt lat="49.2635" lon="0.20174">
        <ele>51.57</ele>
        <time>2021-01-06T13:04:23Z</time>
      </trkpt>
      <trkpt lat="49.26341" lon="0.2014">
        <ele>53.01</ele>
        <time>2021-01-06T13:04:48Z</time>
      </trkpt>
      <trkpt lat="49.26329" lon="0.20113">
        <ele>53.49</ele>
        <time>2021-01-06T13:05:11Z</time>
      </trkpt>
      <trkpt lat="49.26327" lon="0.20113">
        <ele>53.97</ele>
        <time>2021-01-06T13:05:13Z</time>
      </trkpt>
      <trkpt lat="49.26307" lon="0.20117">
        <ele>53.97</ele>
        <time>2021-01-06T13:05:34Z</time>
      </trkpt>
      <trkpt lat="49.26287" lon="0.20121">
        <ele>54.45</ele>
        <time>2021-01-06T13:05:55Z</time>
      </trkpt>
      <trkpt lat="49.26266" lon="0.20122">
        <ele>54.45</ele>
        <time>2021-01-06T13:06:17Z</time>
      </trkpt>
      <trkpt lat="49.26244" lon="0.20123">
        <ele>54.45</ele>
        <time>2021-01-06T13:06:38Z</time>
      </trkpt>
      <trkpt lat="49.2622" lon="0.20123">
        <ele>54.45</ele>
        <time>2021-01-06T13:07:00Z</time>
      </trkpt>
      <trkpt lat="49.26199" lon="0.20122">
        <ele>54.45</ele>
        <time>2021-01-06T13:07:20Z</time>
      </trkpt>
      <trkpt lat="49.26178" lon="0.20122">
        <ele>54.45</ele>
        <time>2021-01-06T13:07:39Z</time>
      </trkpt>
      <trkpt lat="49.26159" lon="0.20124">
        <ele>54.45</ele>
        <time>2021-01-06T13:07:57Z</time>
      </trkpt>
      <trkpt lat="49.2614" lon="0.20127">
        <ele>54.45</ele>
        <time>2021-01-06T13:08:17Z</time>
      </trkpt>
      <trkpt lat="49.26119" lon="0.2013">
        <ele>53.01</ele>
        <time>2021-01-06T13:08:37Z</time>
      </trkpt>
      <trkpt lat="49.26095" lon="0.20132">
        <ele>52.05</ele>
        <time>2021-01-06T13:08:59Z</time>
      </trkpt>
      <trkpt lat="49.26069" lon="0.20133">
        <ele>51.57</ele>
        <time>2021-01-06T13:09:20Z</time>
      </trkpt>
      <trkpt lat="49.26047" lon="0.20137">
        <ele>50.61</ele>
        <time>2021-01-06T13:09:39Z</time>
      </trkpt>
      <trkpt lat="49.26031" lon="0.20145">
        <ele>50.13</ele>
        <time>2021-01-06T13:09:54Z</time>
      </trkpt>
      <trkpt lat="49.26008" lon="0.20152">
        <ele>49.65</ele>
        <time>2021-01-06T13:10:13Z</time>
      </trkpt>
      <trkpt lat="49.25988" lon="0.20152">
        <ele>49.65</ele>
        <time>2021-01-06T13:10:31Z</time>
      </trkpt>
      <trkpt lat="49.25967" lon="0.2015">
        <ele>49.65</ele>
        <time>2021-01-06T13:10:48Z</time>
      </trkpt>
      <trkpt lat="49.2595" lon="0.20153">
        <ele>49.65</ele>
        <time>2021-01-06T13:11:07Z</time>
      </trkpt>
      <trkpt lat="49.25925" lon="0.20152">
        <ele>51.57</ele>
        <time>2021-01-06T13:11:28Z</time>
      </trkpt>
      <trkpt lat="49.25907" lon="0.20155">
        <ele>52.05</ele>
        <time>2021-01-06T13:11:43Z</time>
      </trkpt>
      <trkpt lat="49.25886" lon="0.20156">
        <ele>53.01</ele>
        <time>2021-01-06T13:12:03Z</time>
      </trkpt>
      <trkpt lat="49.25868" lon="0.20141">
        <ele>53.01</ele>
        <time>2021-01-06T13:12:21Z</time>
      </trkpt>
      <trkpt lat="49.25848" lon="0.20144">
        <ele>52.05</ele>
        <time>2021-01-06T13:12:42Z</time>
      </trkpt>
      <trkpt lat="49.25843" lon="0.20146">
        <ele>51.57</ele>
        <time>2021-01-06T13:12:47Z</time>
      </trkpt>
      <trkpt lat="49.25834" lon="0.20171">
        <ele>49.65</ele>
        <time>2021-01-06T13:13:07Z</time>
      </trkpt>
      <trkpt lat="49.2582" lon="0.20186">
        <ele>47.24</ele>
        <time>2021-01-06T13:13:24Z</time>
      </trkpt>
      <trkpt lat="49.25811" lon="0.20186">
        <ele>46.76</ele>
        <time>2021-01-06T13:13:33Z</time>
      </trkpt>
      <trkpt lat="49.25785" lon="0.20179">
        <ele>44.36</ele>
        <time>2021-01-06T13:13:57Z</time>
      </trkpt>
      <trkpt lat="49.25759" lon="0.20169">
        <ele>41.95</ele>
        <time>2021-01-06T13:14:21Z</time>
      </trkpt>
      <trkpt lat="49.25738" lon="0.20163">
        <ele>40.03</ele>
        <time>2021-01-06T13:14:42Z</time>
      </trkpt>
      <trkpt lat="49.25714" lon="0.20153">
        <ele>38.11</ele>
        <time>2021-01-06T13:15:07Z</time>
      </trkpt>
      <trkpt lat="49.25694" lon="0.20144">
        <ele>36.67</ele>
        <time>2021-01-06T13:15:26Z</time>
      </trkpt>
      <trkpt lat="49.2567" lon="0.2013">
        <ele>36.67</ele>
        <time>2021-01-06T13:15:48Z</time>
      </trkpt>
      <trkpt lat="49.25661" lon="0.20112">
        <ele>36.19</ele>
        <time>2021-01-06T13:16:05Z</time>
      </trkpt>
      <trkpt lat="49.25662" lon="0.20115">
        <ele>36.19</ele>
        <time>2021-01-06T13:16:21Z</time>
      </trkpt>
      <trkpt lat="49.25661" lon="0.20111">
        <ele>36.19</ele>
        <time>2021-01-06T13:16:35Z</time>
      </trkpt>
      <trkpt lat="49.25661" lon="0.20089">
        <ele>36.19</ele>
        <time>2021-01-06T13:16:50Z</time>
      </trkpt>
      <trkpt lat="49.25659" lon="0.20071">
        <ele>37.63</ele>
        <time>2021-01-06T13:17:03Z</time>
      </trkpt>
      <trkpt lat="49.25658" lon="0.20045">
        <ele>38.11</ele>
        <time>2021-01-06T13:17:20Z</time>
      </trkpt>
      <trkpt lat="49.25659" lon="0.20019">
        <ele>39.55</ele>
        <time>2021-01-06T13:17:36Z</time>
      </trkpt>
      <trkpt lat="49.25659" lon="0.19993">
        <ele>40.51</ele>
        <time>2021-01-06T13:17:52Z</time>
      </trkpt>
      <trkpt lat="49.25654" lon="0.1997">
        <ele>41.47</ele>
        <time>2021-01-06T13:18:08Z</time>
      </trkpt>
      <trkpt lat="49.25647" lon="0.19949">
        <ele>42.92</ele>
        <time>2021-01-06T13:18:24Z</time>
      </trkpt>
      <trkpt lat="49.25646" lon="0.19948">
        <ele>42.92</ele>
        <time>2021-01-06T13:18:25Z</time>
      </trkpt>
      <trkpt lat="49.25636" lon="0.19936">
        <ele>44.36</ele>
        <time>2021-01-06T13:18:39Z</time>
      </trkpt>
      <trkpt lat="49.25624" lon="0.19932">
        <ele>46.28</ele>
        <time>2021-01-06T13:18:56Z</time>
      </trkpt>
      <trkpt lat="49.25609" lon="0.19939">
        <ele>47.72</ele>
        <time>2021-01-06T13:19:13Z</time>
      </trkpt>
      <trkpt lat="49.25596" lon="0.19943">
        <ele>48.2</ele>
        <time>2021-01-06T13:19:28Z</time>
      </trkpt>
      <trkpt lat="49.25582" lon="0.1995">
        <ele>48.2</ele>
        <time>2021-01-06T13:19:43Z</time>
      </trkpt>
      <trkpt lat="49.25566" lon="0.19954">
        <ele>48.2</ele>
        <time>2021-01-06T13:19:57Z</time>
      </trkpt>
      <trkpt lat="49.25558" lon="0.19957">
        <ele>48.2</ele>
        <time>2021-01-06T13:20:17Z</time>
      </trkpt>
      <trkpt lat="49.25546" lon="0.19963">
        <ele>49.16</ele>
        <time>2021-01-06T13:20:33Z</time>
      </trkpt>
      <trkpt lat="49.25536" lon="0.19966">
        <ele>50.13</ele>
        <time>2021-01-06T13:20:48Z</time>
      </trkpt>
      <trkpt lat="49.25524" lon="0.19964">
        <ele>51.09</ele>
        <time>2021-01-06T13:21:01Z</time>
      </trkpt>
      <trkpt lat="49.255" lon="0.1996">
        <ele>53.01</ele>
        <time>2021-01-06T13:21:21Z</time>
      </trkpt>
      <trkpt lat="49.25487" lon="0.19961">
        <ele>54.45</ele>
        <time>2021-01-06T13:21:35Z</time>
      </trkpt>
      <trkpt lat="49.25477" lon="0.19963">
        <ele>55.89</ele>
        <time>2021-01-06T13:21:48Z</time>
      </trkpt>
      <trkpt lat="49.25468" lon="0.19966">
        <ele>57.34</ele>
        <time>2021-01-06T13:22:04Z</time>
      </trkpt>
      <trkpt lat="49.2546" lon="0.19967">
        <ele>58.3</ele>
        <time>2021-01-06T13:22:19Z</time>
      </trkpt>
      <trkpt lat="49.25452" lon="0.19955">
        <ele>60.22</ele>
        <time>2021-01-06T13:22:40Z</time>
      </trkpt>
      <trkpt lat="49.25444" lon="0.19935">
        <ele>62.62</ele>
        <time>2021-01-06T13:23:01Z</time>
      </trkpt>
      <trkpt lat="49.25437" lon="0.19917">
        <ele>64.55</ele>
        <time>2021-01-06T13:23:20Z</time>
      </trkpt>
      <trkpt lat="49.25432" lon="0.19901">
        <ele>65.99</ele>
        <time>2021-01-06T13:23:42Z</time>
      </trkpt>
      <trkpt lat="49.25428" lon="0.19889">
        <ele>67.43</ele>
        <time>2021-01-06T13:24:09Z</time>
      </trkpt>
      <trkpt lat="49.25421" lon="0.19874">
        <ele>68.39</ele>
        <time>2021-01-06T13:24:28Z</time>
      </trkpt>
      <trkpt lat="49.25418" lon="0.19853">
        <ele>69.35</ele>
        <time>2021-01-06T13:24:48Z</time>
      </trkpt>
      <trkpt lat="49.25414" lon="0.19831">
        <ele>70.79</ele>
        <time>2021-01-06T13:25:09Z</time>
      </trkpt>
      <trkpt lat="49.25406" lon="0.1981">
        <ele>72.24</ele>
        <time>2021-01-06T13:25:30Z</time>
      </trkpt>
      <trkpt lat="49.25402" lon="0.19787">
        <ele>74.16</ele>
        <time>2021-01-06T13:25:51Z</time>
      </trkpt>
      <trkpt lat="49.25393" lon="0.19769">
        <ele>76.08</ele>
        <time>2021-01-06T13:26:14Z</time>
      </trkpt>
      <trkpt lat="49.25386" lon="0.19743">
        <ele>77.52</ele>
        <time>2021-01-06T13:26:36Z</time>
      </trkpt>
      <trkpt lat="49.25382" lon="0.19727">
        <ele>79.45</ele>
        <time>2021-01-06T13:26:57Z</time>
      </trkpt>
      <trkpt lat="49.2538" lon="0.19711">
        <ele>80.41</ele>
        <time>2021-01-06T13:27:12Z</time>
      </trkpt>
      <trkpt lat="49.25378" lon="0.19692">
        <ele>82.81</ele>
        <time>2021-01-06T13:27:32Z</time>
      </trkpt>
      <trkpt lat="49.25375" lon="0.19678">
        <ele>84.73</ele>
        <time>2021-01-06T13:27:53Z</time>
      </trkpt>
      <trkpt lat="49.25375" lon="0.19656">
        <ele>87.62</ele>
        <time>2021-01-06T13:28:18Z</time>
      </trkpt>
      <trkpt lat="49.2537" lon="0.19639">
        <ele>89.54</ele>
        <time>2021-01-06T13:28:40Z</time>
      </trkpt>
      <trkpt lat="49.25365" lon="0.19622">
        <ele>91.46</ele>
        <time>2021-01-06T13:29:04Z</time>
      </trkpt>
      <trkpt lat="49.25364" lon="0.19611">
        <ele>93.39</ele>
        <time>2021-01-06T13:29:18Z</time>
      </trkpt>
      <trkpt lat="49.25365" lon="0.196">
        <ele>95.79</ele>
        <time>2021-01-06T13:29:35Z</time>
      </trkpt>
      <trkpt lat="49.25364" lon="0.19586">
        <ele>97.71</ele>
        <time>2021-01-06T13:29:53Z</time>
      </trkpt>
      <trkpt lat="49.25364" lon="0.19574">
        <ele>99.15</ele>
        <time>2021-01-06T13:30:08Z</time>
      </trkpt>
      <trkpt lat="49.25367" lon="0.19558">
        <ele>100.11</ele>
        <time>2021-01-06T13:30:24Z</time>
      </trkpt>
      <trkpt lat="49.25368" lon="0.19538">
        <ele>102.04</ele>
        <time>2021-01-06T13:30:42Z</time>
      </trkpt>
      <trkpt lat="49.25364" lon="0.19536">
        <ele>103.48</ele>
        <time>2021-01-06T13:30:55Z</time>
      </trkpt>
      <trkpt lat="49.25361" lon="0.19538">
        <ele>103.48</ele>
        <time>2021-01-06T13:30:58Z</time>
      </trkpt>
      <trkpt lat="49.25344" lon="0.19556">
        <ele>103.48</ele>
        <time>2021-01-06T13:31:17Z</time>
      </trkpt>
      <trkpt lat="49.25331" lon="0.19568">
        <ele>103.48</ele>
        <time>2021-01-06T13:31:34Z</time>
      </trkpt>
      <trkpt lat="49.2531" lon="0.1958">
        <ele>103.96</ele>
        <time>2021-01-06T13:31:54Z</time>
      </trkpt>
      <trkpt lat="49.25294" lon="0.1959">
        <ele>104.44</ele>
        <time>2021-01-06T13:32:11Z</time>
      </trkpt>
      <trkpt lat="49.25276" lon="0.19601">
        <ele>105.4</ele>
        <time>2021-01-06T13:32:30Z</time>
      </trkpt>
      <trkpt lat="49.25259" lon="0.1961">
        <ele>105.88</ele>
        <time>2021-01-06T13:32:48Z</time>
      </trkpt>
      <trkpt lat="49.25251" lon="0.19612">
        <ele>105.88</ele>
        <time>2021-01-06T13:32:55Z</time>
      </trkpt>
      <trkpt lat="49.2523" lon="0.19612">
        <ele>106.36</ele>
        <time>2021-01-06T13:33:13Z</time>
      </trkpt>
      <trkpt lat="49.25224" lon="0.19612">
        <ele>106.36</ele>
        <time>2021-01-06T13:33:19Z</time>
      </trkpt>
      <trkpt lat="49.25208" lon="0.19605">
        <ele>106.84</ele>
        <time>2021-01-06T13:33:37Z</time>
      </trkpt>
      <trkpt lat="49.25198" lon="0.19597">
        <ele>106.84</ele>
        <time>2021-01-06T13:33:52Z</time>
      </trkpt>
      <trkpt lat="49.25185" lon="0.19591">
        <ele>106.84</ele>
        <time>2021-01-06T13:34:08Z</time>
      </trkpt>
      <trkpt lat="49.2517" lon="0.19583">
        <ele>107.32</ele>
        <time>2021-01-06T13:34:23Z</time>
      </trkpt>
      <trkpt lat="49.25152" lon="0.19571">
        <ele>107.32</ele>
        <time>2021-01-06T13:34:41Z</time>
      </trkpt>
      <trkpt lat="49.25133" lon="0.19561">
        <ele>107.32</ele>
        <time>2021-01-06T13:34:59Z</time>
      </trkpt>
      <trkpt lat="49.25116" lon="0.19556">
        <ele>107.81</ele>
        <time>2021-01-06T13:35:16Z</time>
      </trkpt>
      <trkpt lat="49.25098" lon="0.19551">
        <ele>107.81</ele>
        <time>2021-01-06T13:35:35Z</time>
      </trkpt>
      <trkpt lat="49.25086" lon="0.1955">
        <ele>107.81</ele>
        <time>2021-01-06T13:35:55Z</time>
      </trkpt>
      <trkpt lat="49.25067" lon="0.1955">
        <ele>107.81</ele>
        <time>2021-01-06T13:36:16Z</time>
      </trkpt>
      <trkpt lat="49.25045" lon="0.19537">
        <ele>107.81</ele>
        <time>2021-01-06T13:36:34Z</time>
      </trkpt>
      <trkpt lat="49.2502" lon="0.19516">
        <ele>108.29</ele>
        <time>2021-01-06T13:36:53Z</time>
      </trkpt>
      <trkpt lat="49.24996" lon="0.1951">
        <ele>108.29</ele>
        <time>2021-01-06T13:37:14Z</time>
      </trkpt>
      <trkpt lat="49.24974" lon="0.19503">
        <ele>108.29</ele>
        <time>2021-01-06T13:37:34Z</time>
      </trkpt>
      <trkpt lat="49.24953" lon="0.19505">
        <ele>108.77</ele>
        <time>2021-01-06T13:37:56Z</time>
      </trkpt>
      <trkpt lat="49.24934" lon="0.19506">
        <ele>108.77</ele>
        <time>2021-01-06T13:38:14Z</time>
      </trkpt>
      <trkpt lat="49.24913" lon="0.19519">
        <ele>109.25</ele>
        <time>2021-01-06T13:38:37Z</time>
      </trkpt>
      <trkpt lat="49.24896" lon="0.19517">
        <ele>109.25</ele>
        <time>2021-01-06T13:38:52Z</time>
      </trkpt>
      <trkpt lat="49.24882" lon="0.1952">
        <ele>109.73</ele>
        <time>2021-01-06T13:39:08Z</time>
      </trkpt>
      <trkpt lat="49.24871" lon="0.19526">
        <ele>110.21</ele>
        <time>2021-01-06T13:39:22Z</time>
      </trkpt>
      <trkpt lat="49.24856" lon="0.19541">
        <ele>110.21</ele>
        <time>2021-01-06T13:39:40Z</time>
      </trkpt>
      <trkpt lat="49.24837" lon="0.19549">
        <ele>110.21</ele>
        <time>2021-01-06T13:40:00Z</time>
      </trkpt>
      <trkpt lat="49.24816" lon="0.19562">
        <ele>110.69</ele>
        <time>2021-01-06T13:40:22Z</time>
      </trkpt>
      <trkpt lat="49.24796" lon="0.19588">
        <ele>111.17</ele>
        <time>2021-01-06T13:40:46Z</time>
      </trkpt>
      <trkpt lat="49.24778" lon="0.19616">
        <ele>111.65</ele>
        <time>2021-01-06T13:41:08Z</time>
      </trkpt>
      <trkpt lat="49.24763" lon="0.19644">
        <ele>111.65</ele>
        <time>2021-01-06T13:41:30Z</time>
      </trkpt>
      <trkpt lat="49.24757" lon="0.19663">
        <ele>110.21</ele>
        <time>2021-01-06T13:41:46Z</time>
      </trkpt>
      <trkpt lat="49.24742" lon="0.197">
        <ele>109.25</ele>
        <time>2021-01-06T13:42:10Z</time>
      </trkpt>
      <trkpt lat="49.24733" lon="0.19726">
        <ele>108.77</ele>
        <time>2021-01-06T13:42:30Z</time>
      </trkpt>
      <trkpt lat="49.24726" lon="0.19741">
        <ele>107.81</ele>
        <time>2021-01-06T13:42:52Z</time>
      </trkpt>
      <trkpt lat="49.24726" lon="0.19743">
        <ele>108.29</ele>
        <time>2021-01-06T13:43:13Z</time>
      </trkpt>
      <trkpt lat="49.24725" lon="0.19744">
        <ele>108.29</ele>
        <time>2021-01-06T13:43:28Z</time>
      </trkpt>
      <trkpt lat="49.24726" lon="0.19746">
        <ele>108.29</ele>
        <time>2021-01-06T13:43:44Z</time>
      </trkpt>
      <trkpt lat="49.24726" lon="0.19756">
        <ele>108.29</ele>
        <time>2021-01-06T13:43:58Z</time>
      </trkpt>
      <trkpt lat="49.24722" lon="0.19772">
        <ele>108.29</ele>
        <time>2021-01-06T13:44:13Z</time>
      </trkpt>
      <trkpt lat="49.24719" lon="0.19777">
        <ele>108.77</ele>
        <time>2021-01-06T13:44:28Z</time>
      </trkpt>
      <trkpt lat="49.24719" lon="0.19774">
        <ele>108.77</ele>
        <time>2021-01-06T13:44:30Z</time>
      </trkpt>
      <trkpt lat="49.24726" lon="0.19758">
        <ele>108.29</ele>
        <time>2021-01-06T13:44:44Z</time>
      </trkpt>
      <trkpt lat="49.24735" lon="0.19751">
        <ele>108.29</ele>
        <time>2021-01-06T13:44:58Z</time>
      </trkpt>
      <trkpt lat="49.2475" lon="0.19742">
        <ele>108.29</ele>
        <time>2021-01-06T13:45:17Z</time>
      </trkpt>
      <trkpt lat="49.24773" lon="0.19738">
        <ele>108.29</ele>
        <time>2021-01-06T13:45:35Z</time>
      </trkpt>
      <trkpt lat="49.24795" lon="0.19751">
        <ele>108.29</ele>
        <time>2021-01-06T13:45:57Z</time>
      </trkpt>
      <trkpt lat="49.24816" lon="0.19766">
        <ele>107.32</ele>
        <time>2021-01-06T13:46:19Z</time>
      </trkpt>
      <trkpt lat="49.24838" lon="0.19776">
        <ele>106.84</ele>
        <time>2021-01-06T13:46:41Z</time>
      </trkpt>
      <trkpt lat="49.24857" lon="0.19784">
        <ele>106.84</ele>
        <time>2021-01-06T13:47:01Z</time>
      </trkpt>
      <trkpt lat="49.24878" lon="0.19794">
        <ele>105.4</ele>
        <time>2021-01-06T13:47:22Z</time>
      </trkpt>
      <trkpt lat="49.24896" lon="0.19804">
        <ele>104.44</ele>
        <time>2021-01-06T13:47:41Z</time>
      </trkpt>
      <trkpt lat="49.24921" lon="0.19819">
        <ele>103.48</ele>
        <time>2021-01-06T13:48:05Z</time>
      </trkpt>
      <trkpt lat="49.2494" lon="0.19846">
        <ele>103.48</ele>
        <time>2021-01-06T13:48:29Z</time>
      </trkpt>
      <trkpt lat="49.24961" lon="0.19868">
        <ele>103</ele>
        <time>2021-01-06T13:48:54Z</time>
      </trkpt>
      <trkpt lat="49.24979" lon="0.19875">
        <ele>103</ele>
        <time>2021-01-06T13:49:15Z</time>
      </trkpt>
      <trkpt lat="49.25009" lon="0.19891">
        <ele>103</ele>
        <time>2021-01-06T13:49:40Z</time>
      </trkpt>
      <trkpt lat="49.25027" lon="0.19894">
        <ele>103.96</ele>
        <time>2021-01-06T13:50:00Z</time>
      </trkpt>
      <trkpt lat="49.25047" lon="0.19886">
        <ele>104.44</ele>
        <time>2021-01-06T13:50:22Z</time>
      </trkpt>
      <trkpt lat="49.25074" lon="0.19872">
        <ele>104.92</ele>
        <time>2021-01-06T13:50:45Z</time>
      </trkpt>
      <trkpt lat="49.25086" lon="0.19868">
        <ele>104.92</ele>
        <time>2021-01-06T13:51:04Z</time>
      </trkpt>
      <trkpt lat="49.25091" lon="0.19867">
        <ele>105.4</ele>
        <time>2021-01-06T13:51:26Z</time>
      </trkpt>
      <trkpt lat="49.251" lon="0.19868">
        <ele>105.4</ele>
        <time>2021-01-06T13:51:44Z</time>
      </trkpt>
      <trkpt lat="49.25123" lon="0.19861">
        <ele>105.4</ele>
        <time>2021-01-06T13:52:07Z</time>
      </trkpt>
      <trkpt lat="49.25147" lon="0.19859">
        <ele>105.4</ele>
        <time>2021-01-06T13:52:27Z</time>
      </trkpt>
      <trkpt lat="49.25166" lon="0.1986">
        <ele>105.4</ele>
        <time>2021-01-06T13:52:47Z</time>
      </trkpt>
      <trkpt lat="49.25189" lon="0.19855">
        <ele>105.4</ele>
        <time>2021-01-06T13:53:10Z</time>
      </trkpt>
      <trkpt lat="49.25211" lon="0.19838">
        <ele>105.4</ele>
        <time>2021-01-06T13:53:31Z</time>
      </trkpt>
      <trkpt lat="49.25231" lon="0.1983">
        <ele>105.4</ele>
        <time>2021-01-06T13:53:52Z</time>
      </trkpt>
      <trkpt lat="49.25237" lon="0.19828">
        <ele>103.96</ele>
        <time>2021-01-06T13:53:59Z</time>
      </trkpt>
      <trkpt lat="49.25261" lon="0.19826">
        <ele>102.52</ele>
        <time>2021-01-06T13:54:23Z</time>
      </trkpt>
      <trkpt lat="49.25277" lon="0.19824">
        <ele>102.04</ele>
        <time>2021-01-06T13:54:43Z</time>
      </trkpt>
      <trkpt lat="49.25287" lon="0.19823">
        <ele>101.08</ele>
        <time>2021-01-06T13:55:02Z</time>
      </trkpt>
      <trkpt lat="49.2529" lon="0.19824">
        <ele>100.6</ele>
        <time>2021-01-06T13:55:28Z</time>
      </trkpt>
      <trkpt lat="49.25288" lon="0.19825">
        <ele>100.6</ele>
        <time>2021-01-06T13:55:48Z</time>
      </trkpt>
      <trkpt lat="49.25283" lon="0.19824">
        <ele>102.04</ele>
        <time>2021-01-06T13:55:54Z</time>
      </trkpt>
      <trkpt lat="49.25272" lon="0.19825">
        <ele>102.04</ele>
        <time>2021-01-06T13:56:03Z</time>
      </trkpt>
      <trkpt lat="49.25258" lon="0.19826">
        <ele>103</ele>
        <time>2021-01-06T13:56:18Z</time>
      </trkpt>
      <trkpt lat="49.25241" lon="0.19828">
        <ele>103.96</ele>
        <time>2021-01-06T13:56:34Z</time>
      </trkpt>
      <trkpt lat="49.25227" lon="0.19831">
        <ele>104.92</ele>
        <time>2021-01-06T13:56:48Z</time>
      </trkpt>
      <trkpt lat="49.25213" lon="0.19838">
        <ele>104.92</ele>
        <time>2021-01-06T13:57:01Z</time>
      </trkpt>
      <trkpt lat="49.25199" lon="0.19849">
        <ele>104.92</ele>
        <time>2021-01-06T13:57:16Z</time>
      </trkpt>
      <trkpt lat="49.25198" lon="0.1985">
        <ele>104.92</ele>
        <time>2021-01-06T13:57:17Z</time>
      </trkpt>
      <trkpt lat="49.25182" lon="0.19863">
        <ele>104.92</ele>
        <time>2021-01-06T13:57:34Z</time>
      </trkpt>
      <trkpt lat="49.25168" lon="0.19865">
        <ele>104.92</ele>
        <time>2021-01-06T13:57:48Z</time>
      </trkpt>
      <trkpt lat="49.25152" lon="0.19861">
        <ele>105.4</ele>
        <time>2021-01-06T13:58:03Z</time>
      </trkpt>
      <trkpt lat="49.25146" lon="0.1986">
        <ele>105.4</ele>
        <time>2021-01-06T13:58:08Z</time>
      </trkpt>
      <trkpt lat="49.25123" lon="0.19863">
        <ele>105.88</ele>
        <time>2021-01-06T13:58:24Z</time>
      </trkpt>
      <trkpt lat="49.25113" lon="0.19864">
        <ele>105.88</ele>
        <time>2021-01-06T13:58:37Z</time>
      </trkpt>
      <trkpt lat="49.25103" lon="0.19865">
        <ele>105.88</ele>
        <time>2021-01-06T13:58:47Z</time>
      </trkpt>
      <trkpt lat="49.251" lon="0.19866">
        <ele>105.88</ele>
        <time>2021-01-06T13:58:49Z</time>
      </trkpt>
      <trkpt lat="49.25083" lon="0.19872">
        <ele>105.88</ele>
        <time>2021-01-06T13:59:05Z</time>
      </trkpt>
      <trkpt lat="49.25066" lon="0.1988">
        <ele>105.88</ele>
        <time>2021-01-06T13:59:22Z</time>
      </trkpt>
      <trkpt lat="49.25061" lon="0.19883">
        <ele>104.44</ele>
        <time>2021-01-06T13:59:26Z</time>
      </trkpt>
      <trkpt lat="49.25044" lon="0.19889">
        <ele>104.92</ele>
        <time>2021-01-06T13:59:42Z</time>
      </trkpt>
      <trkpt lat="49.25023" lon="0.19891">
        <ele>104.44</ele>
        <time>2021-01-06T13:59:59Z</time>
      </trkpt>
      <trkpt lat="49.25006" lon="0.19889">
        <ele>103.96</ele>
        <time>2021-01-06T14:00:15Z</time>
      </trkpt>
      <trkpt lat="49.24991" lon="0.19883">
        <ele>103.96</ele>
        <time>2021-01-06T14:00:32Z</time>
      </trkpt>
      <trkpt lat="49.24972" lon="0.19872">
        <ele>103.48</ele>
        <time>2021-01-06T14:00:50Z</time>
      </trkpt>
      <trkpt lat="49.24952" lon="0.19861">
        <ele>103.48</ele>
        <time>2021-01-06T14:01:07Z</time>
      </trkpt>
      <trkpt lat="49.24938" lon="0.19848">
        <ele>103.48</ele>
        <time>2021-01-06T14:01:24Z</time>
      </trkpt>
      <trkpt lat="49.24925" lon="0.19834">
        <ele>103.48</ele>
        <time>2021-01-06T14:01:40Z</time>
      </trkpt>
      <trkpt lat="49.24909" lon="0.19817">
        <ele>103.48</ele>
        <time>2021-01-06T14:01:55Z</time>
      </trkpt>
      <trkpt lat="49.24903" lon="0.19811">
        <ele>104.92</ele>
        <time>2021-01-06T14:02:01Z</time>
      </trkpt>
      <trkpt lat="49.24887" lon="0.19799">
        <ele>105.4</ele>
        <time>2021-01-06T14:02:16Z</time>
      </trkpt>
      <trkpt lat="49.24877" lon="0.19793">
        <ele>105.88</ele>
        <time>2021-01-06T14:02:30Z</time>
      </trkpt>
      <trkpt lat="49.24862" lon="0.19786">
        <ele>106.36</ele>
        <time>2021-01-06T14:02:46Z</time>
      </trkpt>
      <trkpt lat="49.24842" lon="0.19779">
        <ele>106.84</ele>
        <time>2021-01-06T14:03:03Z</time>
      </trkpt>
      <trkpt lat="49.24829" lon="0.19774">
        <ele>107.32</ele>
        <time>2021-01-06T14:03:17Z</time>
      </trkpt>
      <trkpt lat="49.24814" lon="0.19767">
        <ele>107.81</ele>
        <time>2021-01-06T14:03:32Z</time>
      </trkpt>
      <trkpt lat="49.24797" lon="0.19755">
        <ele>108.77</ele>
        <time>2021-01-06T14:03:48Z</time>
      </trkpt>
      <trkpt lat="49.24787" lon="0.19746">
        <ele>109.25</ele>
        <time>2021-01-06T14:04:01Z</time>
      </trkpt>
      <trkpt lat="49.24769" lon="0.19737">
        <ele>109.73</ele>
        <time>2021-01-06T14:04:19Z</time>
      </trkpt>
      <trkpt lat="49.24755" lon="0.19738">
        <ele>109.73</ele>
        <time>2021-01-06T14:04:32Z</time>
      </trkpt>
      <trkpt lat="49.24741" lon="0.19744">
        <ele>109.73</ele>
        <time>2021-01-06T14:04:46Z</time>
      </trkpt>
      <trkpt lat="49.24726" lon="0.19757">
        <ele>109.73</ele>
        <time>2021-01-06T14:05:02Z</time>
      </trkpt>
      <trkpt lat="49.24724" lon="0.1976">
        <ele>109.73</ele>
        <time>2021-01-06T14:05:04Z</time>
      </trkpt>
      <trkpt lat="49.2471" lon="0.19775">
        <ele>109.73</ele>
        <time>2021-01-06T14:05:22Z</time>
      </trkpt>
      <trkpt lat="49.24697" lon="0.19764">
        <ele>110.21</ele>
        <time>2021-01-06T14:05:39Z</time>
      </trkpt>
      <trkpt lat="49.24688" lon="0.19753">
        <ele>111.17</ele>
        <time>2021-01-06T14:05:54Z</time>
      </trkpt>
      <trkpt lat="49.2468" lon="0.19743">
        <ele>111.65</ele>
        <time>2021-01-06T14:06:07Z</time>
      </trkpt>
      <trkpt lat="49.24664" lon="0.1972">
        <ele>113.09</ele>
        <time>2021-01-06T14:06:25Z</time>
      </trkpt>
      <trkpt lat="49.24654" lon="0.19707">
        <ele>114.05</ele>
        <time>2021-01-06T14:06:41Z</time>
      </trkpt>
      <trkpt lat="49.24646" lon="0.197">
        <ele>115.5</ele>
        <time>2021-01-06T14:06:53Z</time>
      </trkpt>
      <trkpt lat="49.24638" lon="0.1969">
        <ele>115.5</ele>
        <time>2021-01-06T14:07:07Z</time>
      </trkpt>
      <trkpt lat="49.24626" lon="0.19675">
        <ele>116.46</ele>
        <time>2021-01-06T14:07:23Z</time>
      </trkpt>
      <trkpt lat="49.24614" lon="0.19663">
        <ele>117.42</ele>
        <time>2021-01-06T14:07:39Z</time>
      </trkpt>
      <trkpt lat="49.24603" lon="0.19654">
        <ele>117.9</ele>
        <time>2021-01-06T14:07:54Z</time>
      </trkpt>
      <trkpt lat="49.24592" lon="0.1964">
        <ele>118.38</ele>
        <time>2021-01-06T14:08:11Z</time>
      </trkpt>
      <trkpt lat="49.24579" lon="0.19614">
        <ele>118.38</ele>
        <time>2021-01-06T14:08:29Z</time>
      </trkpt>
      <trkpt lat="49.24569" lon="0.19599">
        <ele>118.86</ele>
        <time>2021-01-06T14:08:45Z</time>
      </trkpt>
      <trkpt lat="49.24559" lon="0.19587">
        <ele>119.82</ele>
        <time>2021-01-06T14:09:01Z</time>
      </trkpt>
      <trkpt lat="49.24546" lon="0.19572">
        <ele>120.3</ele>
        <time>2021-01-06T14:09:18Z</time>
      </trkpt>
      <trkpt lat="49.24534" lon="0.19563">
        <ele>120.3</ele>
        <time>2021-01-06T14:09:34Z</time>
      </trkpt>
      <trkpt lat="49.2452" lon="0.19556">
        <ele>120.78</ele>
        <time>2021-01-06T14:09:51Z</time>
      </trkpt>
      <trkpt lat="49.24505" lon="0.19552">
        <ele>121.26</ele>
        <time>2021-01-06T14:10:07Z</time>
      </trkpt>
      <trkpt lat="49.24489" lon="0.19546">
        <ele>122.22</ele>
        <time>2021-01-06T14:10:23Z</time>
      </trkpt>
      <trkpt lat="49.24476" lon="0.19538">
        <ele>122.71</ele>
        <time>2021-01-06T14:10:41Z</time>
      </trkpt>
      <trkpt lat="49.24466" lon="0.19533">
        <ele>123.19</ele>
        <time>2021-01-06T14:10:57Z</time>
      </trkpt>
      <trkpt lat="49.24454" lon="0.19525">
        <ele>123.67</ele>
        <time>2021-01-06T14:11:16Z</time>
      </trkpt>
      <trkpt lat="49.24447" lon="0.19521">
        <ele>123.67</ele>
        <time>2021-01-06T14:11:27Z</time>
      </trkpt>
      <trkpt lat="49.24431" lon="0.19512">
        <ele>124.15</ele>
        <time>2021-01-06T14:11:45Z</time>
      </trkpt>
      <trkpt lat="49.24421" lon="0.19511">
        <ele>124.15</ele>
        <time>2021-01-06T14:12:00Z</time>
      </trkpt>
      <trkpt lat="49.24408" lon="0.19518">
        <ele>124.15</ele>
        <time>2021-01-06T14:12:14Z</time>
      </trkpt>
      <trkpt lat="49.24402" lon="0.19522">
        <ele>124.15</ele>
        <time>2021-01-06T14:12:20Z</time>
      </trkpt>
      <trkpt lat="49.24388" lon="0.19529">
        <ele>124.63</ele>
        <time>2021-01-06T14:12:37Z</time>
      </trkpt>
      <trkpt lat="49.24372" lon="0.19537">
        <ele>125.11</ele>
        <time>2021-01-06T14:12:54Z</time>
      </trkpt>
      <trkpt lat="49.24356" lon="0.19544">
        <ele>125.11</ele>
        <time>2021-01-06T14:13:11Z</time>
      </trkpt>
      <trkpt lat="49.2434" lon="0.19551">
        <ele>125.11</ele>
        <time>2021-01-06T14:13:27Z</time>
      </trkpt>
      <trkpt lat="49.24332" lon="0.19554">
        <ele>125.11</ele>
        <time>2021-01-06T14:13:36Z</time>
      </trkpt>
      <trkpt lat="49.24318" lon="0.19562">
        <ele>125.11</ele>
        <time>2021-01-06T14:13:53Z</time>
      </trkpt>
      <trkpt lat="49.24308" lon="0.19565">
        <ele>125.59</ele>
        <time>2021-01-06T14:14:06Z</time>
      </trkpt>
      <trkpt lat="49.24302" lon="0.19563">
        <ele>125.59</ele>
        <time>2021-01-06T14:14:17Z</time>
      </trkpt>
      <trkpt lat="49.24289" lon="0.19543">
        <ele>125.59</ele>
        <time>2021-01-06T14:14:34Z</time>
      </trkpt>
      <trkpt lat="49.24269" lon="0.19541">
        <ele>125.59</ele>
        <time>2021-01-06T14:14:51Z</time>
      </trkpt>
      <trkpt lat="49.24252" lon="0.1954">
        <ele>125.59</ele>
        <time>2021-01-06T14:15:08Z</time>
      </trkpt>
      <trkpt lat="49.24237" lon="0.1954">
        <ele>125.59</ele>
        <time>2021-01-06T14:15:24Z</time>
      </trkpt>
      <trkpt lat="49.24223" lon="0.19543">
        <ele>124.63</ele>
        <time>2021-01-06T14:15:38Z</time>
      </trkpt>
      <trkpt lat="49.24207" lon="0.19545">
        <ele>124.15</ele>
        <time>2021-01-06T14:15:53Z</time>
      </trkpt>
      <trkpt lat="49.24189" lon="0.19542">
        <ele>123.67</ele>
        <time>2021-01-06T14:16:09Z</time>
      </trkpt>
      <trkpt lat="49.24171" lon="0.19532">
        <ele>122.71</ele>
        <time>2021-01-06T14:16:24Z</time>
      </trkpt>
      <trkpt lat="49.24154" lon="0.19524">
        <ele>120.78</ele>
        <time>2021-01-06T14:16:41Z</time>
      </trkpt>
      <trkpt lat="49.24142" lon="0.19524">
        <ele>119.82</ele>
        <time>2021-01-06T14:16:51Z</time>
      </trkpt>
      <trkpt lat="49.24126" lon="0.19529">
        <ele>117.9</ele>
        <time>2021-01-06T14:17:09Z</time>
      </trkpt>
      <trkpt lat="49.2411" lon="0.1953">
        <ele>115.5</ele>
        <time>2021-01-06T14:17:25Z</time>
      </trkpt>
      <trkpt lat="49.24095" lon="0.19531">
        <ele>112.61</ele>
        <time>2021-01-06T14:17:43Z</time>
      </trkpt>
      <trkpt lat="49.24079" lon="0.19535">
        <ele>110.21</ele>
        <time>2021-01-06T14:18:02Z</time>
      </trkpt>
      <trkpt lat="49.24067" lon="0.19537">
        <ele>107.32</ele>
        <time>2021-01-06T14:18:17Z</time>
      </trkpt>
      <trkpt lat="49.24062" lon="0.19538">
        <ele>105.88</ele>
        <time>2021-01-06T14:18:24Z</time>
      </trkpt>
      <trkpt lat="49.24058" lon="0.19534">
        <ele>105.4</ele>
        <time>2021-01-06T14:18:36Z</time>
      </trkpt>
      <trkpt lat="49.24061" lon="0.19527">
        <ele>106.84</ele>
        <time>2021-01-06T14:18:44Z</time>
      </trkpt>
      <trkpt lat="49.24066" lon="0.19517">
        <ele>108.29</ele>
        <time>2021-01-06T14:18:59Z</time>
      </trkpt>
      <trkpt lat="49.24067" lon="0.19503">
        <ele>109.25</ele>
        <time>2021-01-06T14:19:12Z</time>
      </trkpt>
      <trkpt lat="49.2407" lon="0.19489">
        <ele>110.21</ele>
        <time>2021-01-06T14:19:21Z</time>
      </trkpt>
      <trkpt lat="49.24072" lon="0.19483">
        <ele>110.69</ele>
        <time>2021-01-06T14:19:25Z</time>
      </trkpt>
      <trkpt lat="49.24075" lon="0.19458">
        <ele>111.65</ele>
        <time>2021-01-06T14:19:41Z</time>
      </trkpt>
      <trkpt lat="49.24079" lon="0.19433">
        <ele>113.57</ele>
        <time>2021-01-06T14:19:58Z</time>
      </trkpt>
      <trkpt lat="49.24083" lon="0.19411">
        <ele>115.5</ele>
        <time>2021-01-06T14:20:16Z</time>
      </trkpt>
      <trkpt lat="49.24088" lon="0.19387">
        <ele>116.94</ele>
        <time>2021-01-06T14:20:31Z</time>
      </trkpt>
      <trkpt lat="49.24089" lon="0.19373">
        <ele>117.42</ele>
        <time>2021-01-06T14:20:47Z</time>
      </trkpt>
      <trkpt lat="49.24088" lon="0.19353">
        <ele>118.86</ele>
        <time>2021-01-06T14:21:00Z</time>
      </trkpt>
      <trkpt lat="49.24088" lon="0.19322">
        <ele>120.3</ele>
        <time>2021-01-06T14:21:16Z</time>
      </trkpt>
      <trkpt lat="49.24097" lon="0.19298">
        <ele>121.74</ele>
        <time>2021-01-06T14:21:32Z</time>
      </trkpt>
      <trkpt lat="49.241" lon="0.19289">
        <ele>122.22</ele>
        <time>2021-01-06T14:21:39Z</time>
      </trkpt>
      <trkpt lat="49.24112" lon="0.19269">
        <ele>123.67</ele>
        <time>2021-01-06T14:21:56Z</time>
      </trkpt>
      <trkpt lat="49.24123" lon="0.19247">
        <ele>124.15</ele>
        <time>2021-01-06T14:22:13Z</time>
      </trkpt>
      <trkpt lat="49.24132" lon="0.19224">
        <ele>125.11</ele>
        <time>2021-01-06T14:22:30Z</time>
      </trkpt>
      <trkpt lat="49.2414" lon="0.19198">
        <ele>125.59</ele>
        <time>2021-01-06T14:22:48Z</time>
      </trkpt>
      <trkpt lat="49.24148" lon="0.19167">
        <ele>126.07</ele>
        <time>2021-01-06T14:23:08Z</time>
      </trkpt>
      <trkpt lat="49.24149" lon="0.19147">
        <ele>126.07</ele>
        <time>2021-01-06T14:23:23Z</time>
      </trkpt>
      <trkpt lat="49.24132" lon="0.1914">
        <ele>126.07</ele>
        <time>2021-01-06T14:23:40Z</time>
      </trkpt>
      <trkpt lat="49.24116" lon="0.19138">
        <ele>126.07</ele>
        <time>2021-01-06T14:23:57Z</time>
      </trkpt>
      <trkpt lat="49.24099" lon="0.19128">
        <ele>125.11</ele>
        <time>2021-01-06T14:24:13Z</time>
      </trkpt>
      <trkpt lat="49.24084" lon="0.19121">
        <ele>125.11</ele>
        <time>2021-01-06T14:24:29Z</time>
      </trkpt>
      <trkpt lat="49.24067" lon="0.19112">
        <ele>124.15</ele>
        <time>2021-01-06T14:24:44Z</time>
      </trkpt>
      <trkpt lat="49.2405" lon="0.19105">
        <ele>123.67</ele>
        <time>2021-01-06T14:25:02Z</time>
      </trkpt>
      <trkpt lat="49.24033" lon="0.19095">
        <ele>123.19</ele>
        <time>2021-01-06T14:25:19Z</time>
      </trkpt>
      <trkpt lat="49.24016" lon="0.19082">
        <ele>122.22</ele>
        <time>2021-01-06T14:25:37Z</time>
      </trkpt>
      <trkpt lat="49.24002" lon="0.19076">
        <ele>121.74</ele>
        <time>2021-01-06T14:25:51Z</time>
      </trkpt>
      <trkpt lat="49.2399" lon="0.19075">
        <ele>120.78</ele>
        <time>2021-01-06T14:26:05Z</time>
      </trkpt>
      <trkpt lat="49.23971" lon="0.19071">
        <ele>120.3</ele>
        <time>2021-01-06T14:26:23Z</time>
      </trkpt>
      <trkpt lat="49.23956" lon="0.19068">
        <ele>119.82</ele>
        <time>2021-01-06T14:26:38Z</time>
      </trkpt>
      <trkpt lat="49.23942" lon="0.19064">
        <ele>119.82</ele>
        <time>2021-01-06T14:26:53Z</time>
      </trkpt>
      <trkpt lat="49.23928" lon="0.1906">
        <ele>119.34</ele>
        <time>2021-01-06T14:27:09Z</time>
      </trkpt>
      <trkpt lat="49.23913" lon="0.19056">
        <ele>118.86</ele>
        <time>2021-01-06T14:27:24Z</time>
      </trkpt>
      <trkpt lat="49.23898" lon="0.19051">
        <ele>118.38</ele>
        <time>2021-01-06T14:27:40Z</time>
      </trkpt>
      <trkpt lat="49.23882" lon="0.19045">
        <ele>117.9</ele>
        <time>2021-01-06T14:27:59Z</time>
      </trkpt>
      <trkpt lat="49.23868" lon="0.19036">
        <ele>117.42</ele>
        <time>2021-01-06T14:28:14Z</time>
      </trkpt>
      <trkpt lat="49.2386" lon="0.1903">
        <ele>116.46</ele>
        <time>2021-01-06T14:28:30Z</time>
      </trkpt>
      <trkpt lat="49.23846" lon="0.19021">
        <ele>115.98</ele>
        <time>2021-01-06T14:28:46Z</time>
      </trkpt>
      <trkpt lat="49.23835" lon="0.19016">
        <ele>115.5</ele>
        <time>2021-01-06T14:29:02Z</time>
      </trkpt>
      <trkpt lat="49.23827" lon="0.19012">
        <ele>115.5</ele>
        <time>2021-01-06T14:29:18Z</time>
      </trkpt>
      <trkpt lat="49.23819" lon="0.19004">
        <ele>115.5</ele>
        <time>2021-01-06T14:29:33Z</time>
      </trkpt>
      <trkpt lat="49.23808" lon="0.18997">
        <ele>116.94</ele>
        <time>2021-01-06T14:29:48Z</time>
      </trkpt>
      <trkpt lat="49.23795" lon="0.18989">
        <ele>117.42</ele>
        <time>2021-01-06T14:30:05Z</time>
      </trkpt>
      <trkpt lat="49.23777" lon="0.18981">
        <ele>117.9</ele>
        <time>2021-01-06T14:30:21Z</time>
      </trkpt>
      <trkpt lat="49.23762" lon="0.18974">
        <ele>117.9</ele>
        <time>2021-01-06T14:30:35Z</time>
      </trkpt>
      <trkpt lat="49.23752" lon="0.18968">
        <ele>117.9</ele>
        <time>2021-01-06T14:30:48Z</time>
      </trkpt>
      <trkpt lat="49.23741" lon="0.1896">
        <ele>118.38</ele>
        <time>2021-01-06T14:31:02Z</time>
      </trkpt>
      <trkpt lat="49.23731" lon="0.18949">
        <ele>119.82</ele>
        <time>2021-01-06T14:31:18Z</time>
      </trkpt>
      <trkpt lat="49.23716" lon="0.18936">
        <ele>120.3</ele>
        <time>2021-01-06T14:31:34Z</time>
      </trkpt>
      <trkpt lat="49.23703" lon="0.18927">
        <ele>120.3</ele>
        <time>2021-01-06T14:31:47Z</time>
      </trkpt>
      <trkpt lat="49.2369" lon="0.18919">
        <ele>121.26</ele>
        <time>2021-01-06T14:32:03Z</time>
      </trkpt>
      <trkpt lat="49.2368" lon="0.18912">
        <ele>121.74</ele>
        <time>2021-01-06T14:32:16Z</time>
      </trkpt>
      <trkpt lat="49.2367" lon="0.18905">
        <ele>122.22</ele>
        <time>2021-01-06T14:32:32Z</time>
      </trkpt>
      <trkpt lat="49.2366" lon="0.18894">
        <ele>122.71</ele>
        <time>2021-01-06T14:32:46Z</time>
      </trkpt>
      <trkpt lat="49.23645" lon="0.18882">
        <ele>123.19</ele>
        <time>2021-01-06T14:33:02Z</time>
      </trkpt>
      <trkpt lat="49.23631" lon="0.18865">
        <ele>123.19</ele>
        <time>2021-01-06T14:33:21Z</time>
      </trkpt>
      <trkpt lat="49.23619" lon="0.18853">
        <ele>123.67</ele>
        <time>2021-01-06T14:33:34Z</time>
      </trkpt>
      <trkpt lat="49.23608" lon="0.18841">
        <ele>123.67</ele>
        <time>2021-01-06T14:33:49Z</time>
      </trkpt>
      <trkpt lat="49.236" lon="0.18834">
        <ele>123.67</ele>
        <time>2021-01-06T14:34:03Z</time>
      </trkpt>
      <trkpt lat="49.23592" lon="0.18826">
        <ele>124.15</ele>
        <time>2021-01-06T14:34:19Z</time>
      </trkpt>
      <trkpt lat="49.2359" lon="0.18818">
        <ele>123.67</ele>
        <time>2021-01-06T14:34:36Z</time>
      </trkpt>
      <trkpt lat="49.23582" lon="0.18809">
        <ele>124.15</ele>
        <time>2021-01-06T14:34:54Z</time>
      </trkpt>
      <trkpt lat="49.23569" lon="0.18794">
        <ele>123.67</ele>
        <time>2021-01-06T14:35:11Z</time>
      </trkpt>
      <trkpt lat="49.23558" lon="0.18781">
        <ele>124.15</ele>
        <time>2021-01-06T14:35:28Z</time>
      </trkpt>
      <trkpt lat="49.23545" lon="0.18767">
        <ele>124.15</ele>
        <time>2021-01-06T14:35:44Z</time>
      </trkpt>
      <trkpt lat="49.23531" lon="0.18753">
        <ele>124.15</ele>
        <time>2021-01-06T14:35:59Z</time>
      </trkpt>
      <trkpt lat="49.23519" lon="0.1874">
        <ele>124.63</ele>
        <time>2021-01-06T14:36:15Z</time>
      </trkpt>
      <trkpt lat="49.23513" lon="0.18735">
        <ele>124.63</ele>
        <time>2021-01-06T14:36:21Z</time>
      </trkpt>
      <trkpt lat="49.23499" lon="0.18726">
        <ele>124.63</ele>
        <time>2021-01-06T14:36:36Z</time>
      </trkpt>
      <trkpt lat="49.23488" lon="0.1872">
        <ele>124.63</ele>
        <time>2021-01-06T14:36:50Z</time>
      </trkpt>
      <trkpt lat="49.23476" lon="0.18712">
        <ele>124.63</ele>
        <time>2021-01-06T14:37:05Z</time>
      </trkpt>
      <trkpt lat="49.23462" lon="0.18705">
        <ele>124.63</ele>
        <time>2021-01-06T14:37:20Z</time>
      </trkpt>
      <trkpt lat="49.2345" lon="0.18702">
        <ele>124.63</ele>
        <time>2021-01-06T14:37:33Z</time>
      </trkpt>
      <trkpt lat="49.23435" lon="0.18697">
        <ele>124.63</ele>
        <time>2021-01-06T14:37:48Z</time>
      </trkpt>
      <trkpt lat="49.23418" lon="0.18695">
        <ele>124.15</ele>
        <time>2021-01-06T14:38:04Z</time>
      </trkpt>
      <trkpt lat="49.23401" lon="0.18696">
        <ele>124.15</ele>
        <time>2021-01-06T14:38:20Z</time>
      </trkpt>
      <trkpt lat="49.23385" lon="0.18696">
        <ele>124.15</ele>
        <time>2021-01-06T14:38:35Z</time>
      </trkpt>
      <trkpt lat="49.23369" lon="0.18698">
        <ele>124.15</ele>
        <time>2021-01-06T14:38:51Z</time>
      </trkpt>
      <trkpt lat="49.23357" lon="0.18698">
        <ele>123.19</ele>
        <time>2021-01-06T14:39:04Z</time>
      </trkpt>
      <trkpt lat="49.23339" lon="0.18701">
        <ele>123.19</ele>
        <time>2021-01-06T14:39:21Z</time>
      </trkpt>
      <trkpt lat="49.23324" lon="0.18702">
        <ele>122.71</ele>
        <time>2021-01-06T14:39:36Z</time>
      </trkpt>
      <trkpt lat="49.2331" lon="0.18701">
        <ele>122.71</ele>
        <time>2021-01-06T14:39:52Z</time>
      </trkpt>
      <trkpt lat="49.2331" lon="0.18695">
        <ele>123.67</ele>
        <time>2021-01-06T14:40:01Z</time>
      </trkpt>
      <trkpt lat="49.2331" lon="0.18679">
        <ele>124.63</ele>
        <time>2021-01-06T14:40:17Z</time>
      </trkpt>
      <trkpt lat="49.23311" lon="0.18663">
        <ele>125.11</ele>
        <time>2021-01-06T14:40:30Z</time>
      </trkpt>
      <trkpt lat="49.23314" lon="0.18637">
        <ele>126.07</ele>
        <time>2021-01-06T14:40:47Z</time>
      </trkpt>
      <trkpt lat="49.23315" lon="0.18612">
        <ele>126.07</ele>
        <time>2021-01-06T14:41:04Z</time>
      </trkpt>
      <trkpt lat="49.23321" lon="0.18586">
        <ele>127.03</ele>
        <time>2021-01-06T14:41:21Z</time>
      </trkpt>
      <trkpt lat="49.23323" lon="0.18562">
        <ele>128.47</ele>
        <time>2021-01-06T14:41:36Z</time>
      </trkpt>
      <trkpt lat="49.23325" lon="0.18541">
        <ele>128.95</ele>
        <time>2021-01-06T14:41:51Z</time>
      </trkpt>
      <trkpt lat="49.23326" lon="0.18524">
        <ele>129.43</ele>
        <time>2021-01-06T14:42:04Z</time>
      </trkpt>
      <trkpt lat="49.23312" lon="0.18515">
        <ele>129.43</ele>
        <time>2021-01-06T14:42:17Z</time>
      </trkpt>
      <trkpt lat="49.23299" lon="0.18513">
        <ele>129.43</ele>
        <time>2021-01-06T14:42:30Z</time>
      </trkpt>
      <trkpt lat="49.23283" lon="0.18514">
        <ele>129.43</ele>
        <time>2021-01-06T14:42:47Z</time>
      </trkpt>
      <trkpt lat="49.23265" lon="0.18512">
        <ele>129.92</ele>
        <time>2021-01-06T14:43:03Z</time>
      </trkpt>
      <trkpt lat="49.23249" lon="0.18511">
        <ele>129.92</ele>
        <time>2021-01-06T14:43:20Z</time>
      </trkpt>
      <trkpt lat="49.2323" lon="0.18511">
        <ele>130.4</ele>
        <time>2021-01-06T14:43:38Z</time>
      </trkpt>
      <trkpt lat="49.23212" lon="0.18507">
        <ele>130.4</ele>
        <time>2021-01-06T14:43:55Z</time>
      </trkpt>
      <trkpt lat="49.23192" lon="0.18508">
        <ele>130.4</ele>
        <time>2021-01-06T14:44:14Z</time>
      </trkpt>
      <trkpt lat="49.23176" lon="0.1851">
        <ele>130.4</ele>
        <time>2021-01-06T14:44:31Z</time>
      </trkpt>
      <trkpt lat="49.23158" lon="0.18512">
        <ele>130.88</ele>
        <time>2021-01-06T14:44:48Z</time>
      </trkpt>
      <trkpt lat="49.23145" lon="0.1851">
        <ele>130.88</ele>
        <time>2021-01-06T14:45:02Z</time>
      </trkpt>
      <trkpt lat="49.23127" lon="0.1851">
        <ele>130.88</ele>
        <time>2021-01-06T14:45:17Z</time>
      </trkpt>
      <trkpt lat="49.23109" lon="0.18511">
        <ele>130.88</ele>
        <time>2021-01-06T14:45:36Z</time>
      </trkpt>
      <trkpt lat="49.2309" lon="0.18514">
        <ele>131.36</ele>
        <time>2021-01-06T14:45:53Z</time>
      </trkpt>
      <trkpt lat="49.23071" lon="0.18515">
        <ele>131.84</ele>
        <time>2021-01-06T14:46:11Z</time>
      </trkpt>
      <trkpt lat="49.23055" lon="0.18517">
        <ele>131.84</ele>
        <time>2021-01-06T14:46:28Z</time>
      </trkpt>
      <trkpt lat="49.23041" lon="0.18523">
        <ele>131.84</ele>
        <time>2021-01-06T14:46:47Z</time>
      </trkpt>
      <trkpt lat="49.23027" lon="0.18528">
        <ele>131.84</ele>
        <time>2021-01-06T14:47:03Z</time>
      </trkpt>
      <trkpt lat="49.23011" lon="0.18535">
        <ele>131.84</ele>
        <time>2021-01-06T14:47:18Z</time>
      </trkpt>
      <trkpt lat="49.22994" lon="0.18538">
        <ele>131.84</ele>
        <time>2021-01-06T14:47:34Z</time>
      </trkpt>
      <trkpt lat="49.22977" lon="0.18542">
        <ele>131.84</ele>
        <time>2021-01-06T14:47:49Z</time>
      </trkpt>
      <trkpt lat="49.2296" lon="0.18546">
        <ele>131.84</ele>
        <time>2021-01-06T14:48:05Z</time>
      </trkpt>
      <trkpt lat="49.22948" lon="0.18555">
        <ele>130.88</ele>
        <time>2021-01-06T14:48:20Z</time>
      </trkpt>
      <trkpt lat="49.22925" lon="0.18564">
        <ele>130.4</ele>
        <time>2021-01-06T14:48:39Z</time>
      </trkpt>
      <trkpt lat="49.22909" lon="0.18567">
        <ele>129.92</ele>
        <time>2021-01-06T14:48:54Z</time>
      </trkpt>
      <trkpt lat="49.22892" lon="0.18565">
        <ele>129.43</ele>
        <time>2021-01-06T14:49:10Z</time>
      </trkpt>
      <trkpt lat="49.22873" lon="0.18559">
        <ele>128.95</ele>
        <time>2021-01-06T14:49:28Z</time>
      </trkpt>
      <trkpt lat="49.22865" lon="0.18556">
        <ele>128.95</ele>
        <time>2021-01-06T14:49:36Z</time>
      </trkpt>
      <trkpt lat="49.2286" lon="0.18544">
        <ele>128.95</ele>
        <time>2021-01-06T14:49:51Z</time>
      </trkpt>
      <trkpt lat="49.22859" lon="0.18544">
        <ele>128.95</ele>
        <time>2021-01-06T14:50:10Z</time>
      </trkpt>
      <trkpt lat="49.22859" lon="0.18547">
        <ele>128.95</ele>
        <time>2021-01-06T14:50:27Z</time>
      </trkpt>
      <trkpt lat="49.22852" lon="0.18549">
        <ele>128.95</ele>
        <time>2021-01-06T14:50:34Z</time>
      </trkpt>
      <trkpt lat="49.22838" lon="0.18552">
        <ele>128.95</ele>
        <time>2021-01-06T14:50:51Z</time>
      </trkpt>
      <trkpt lat="49.22843" lon="0.18552">
        <ele>128.95</ele>
        <time>2021-01-06T14:50:56Z</time>
      </trkpt>
      <trkpt lat="49.22854" lon="0.18544">
        <ele>128.95</ele>
        <time>2021-01-06T14:51:10Z</time>
      </trkpt>
      <trkpt lat="49.22859" lon="0.18533">
        <ele>130.4</ele>
        <time>2021-01-06T14:51:30Z</time>
      </trkpt>
      <trkpt lat="49.22859" lon="0.18529">
        <ele>130.4</ele>
        <time>2021-01-06T14:51:50Z</time>
      </trkpt>
      <trkpt lat="49.2286" lon="0.18529">
        <ele>130.4</ele>
        <time>2021-01-06T14:52:13Z</time>
      </trkpt>
      <trkpt lat="49.2286" lon="0.18512">
        <ele>130.4</ele>
        <time>2021-01-06T14:52:32Z</time>
      </trkpt>
      <trkpt lat="49.22863" lon="0.18486">
        <ele>131.36</ele>
        <time>2021-01-06T14:52:48Z</time>
      </trkpt>
      <trkpt lat="49.2286" lon="0.18459">
        <ele>131.36</ele>
        <time>2021-01-06T14:53:04Z</time>
      </trkpt>
      <trkpt lat="49.22853" lon="0.1843">
        <ele>131.84</ele>
        <time>2021-01-06T14:53:21Z</time>
      </trkpt>
      <trkpt lat="49.22849" lon="0.18399">
        <ele>132.32</ele>
        <time>2021-01-06T14:53:38Z</time>
      </trkpt>
      <trkpt lat="49.22848" lon="0.18374">
        <ele>132.8</ele>
        <time>2021-01-06T14:53:54Z</time>
      </trkpt>
      <trkpt lat="49.2284" lon="0.18349">
        <ele>132.8</ele>
        <time>2021-01-06T14:54:12Z</time>
      </trkpt>
      <trkpt lat="49.22834" lon="0.18325">
        <ele>132.8</ele>
        <time>2021-01-06T14:54:28Z</time>
      </trkpt>
      <trkpt lat="49.22834" lon="0.1831">
        <ele>132.8</ele>
        <time>2021-01-06T14:54:36Z</time>
      </trkpt>
      <trkpt lat="49.22839" lon="0.18276">
        <ele>132.8</ele>
        <time>2021-01-06T14:54:55Z</time>
      </trkpt>
      <trkpt lat="49.22848" lon="0.18258">
        <ele>132.8</ele>
        <time>2021-01-06T14:55:09Z</time>
      </trkpt>
      <trkpt lat="49.22862" lon="0.18226">
        <ele>132.8</ele>
        <time>2021-01-06T14:55:28Z</time>
      </trkpt>
      <trkpt lat="49.22864" lon="0.18213">
        <ele>132.8</ele>
        <time>2021-01-06T14:55:37Z</time>
      </trkpt>
      <trkpt lat="49.22867" lon="0.18199">
        <ele>131.84</ele>
        <time>2021-01-06T14:55:44Z</time>
      </trkpt>
      <trkpt lat="49.22871" lon="0.18163">
        <ele>130.88</ele>
        <time>2021-01-06T14:56:04Z</time>
      </trkpt>
      <trkpt lat="49.22874" lon="0.18134">
        <ele>130.88</ele>
        <time>2021-01-06T14:56:21Z</time>
      </trkpt>
      <trkpt lat="49.22878" lon="0.18098">
        <ele>129.92</ele>
        <time>2021-01-06T14:56:42Z</time>
      </trkpt>
      <trkpt lat="49.22882" lon="0.18066">
        <ele>128.47</ele>
        <time>2021-01-06T14:57:03Z</time>
      </trkpt>
      <trkpt lat="49.2288" lon="0.18058">
        <ele>128.47</ele>
        <time>2021-01-06T14:57:25Z</time>
      </trkpt>
      <trkpt lat="49.22877" lon="0.18055">
        <ele>128.47</ele>
        <time>2021-01-06T14:57:29Z</time>
      </trkpt>
      <trkpt lat="49.22861" lon="0.18036">
        <ele>127.99</ele>
        <time>2021-01-06T14:57:47Z</time>
      </trkpt>
      <trkpt lat="49.22845" lon="0.1802">
        <ele>127.51</ele>
        <time>2021-01-06T14:58:05Z</time>
      </trkpt>
      <trkpt lat="49.22834" lon="0.18004">
        <ele>127.03</ele>
        <time>2021-01-06T14:58:22Z</time>
      </trkpt>
      <trkpt lat="49.22845" lon="0.1799">
        <ele>127.03</ele>
        <time>2021-01-06T14:58:38Z</time>
      </trkpt>
      <trkpt lat="49.22866" lon="0.17972">
        <ele>126.07</ele>
        <time>2021-01-06T14:59:00Z</time>
      </trkpt>
      <trkpt lat="49.22879" lon="0.17954">
        <ele>126.07</ele>
        <time>2021-01-06T14:59:17Z</time>
      </trkpt>
      <trkpt lat="49.22891" lon="0.17937">
        <ele>126.07</ele>
        <time>2021-01-06T14:59:35Z</time>
      </trkpt>
      <trkpt lat="49.22906" lon="0.17915">
        <ele>125.11</ele>
        <time>2021-01-06T14:59:54Z</time>
      </trkpt>
      <trkpt lat="49.22917" lon="0.17899">
        <ele>124.63</ele>
        <time>2021-01-06T15:00:09Z</time>
      </trkpt>
      <trkpt lat="49.22933" lon="0.17879">
        <ele>124.15</ele>
        <time>2021-01-06T15:00:25Z</time>
      </trkpt>
      <trkpt lat="49.22946" lon="0.17867">
        <ele>124.15</ele>
        <time>2021-01-06T15:00:39Z</time>
      </trkpt>
      <trkpt lat="49.22963" lon="0.1785">
        <ele>123.67</ele>
        <time>2021-01-06T15:00:56Z</time>
      </trkpt>
      <trkpt lat="49.22977" lon="0.17835">
        <ele>123.67</ele>
        <time>2021-01-06T15:01:12Z</time>
      </trkpt>
      <trkpt lat="49.2299" lon="0.17823">
        <ele>123.19</ele>
        <time>2021-01-06T15:01:26Z</time>
      </trkpt>
      <trkpt lat="49.23006" lon="0.17807">
        <ele>123.19</ele>
        <time>2021-01-06T15:01:43Z</time>
      </trkpt>
      <trkpt lat="49.23026" lon="0.1779">
        <ele>123.19</ele>
        <time>2021-01-06T15:02:02Z</time>
      </trkpt>
      <trkpt lat="49.23043" lon="0.17779">
        <ele>122.71</ele>
        <time>2021-01-06T15:02:19Z</time>
      </trkpt>
      <trkpt lat="49.23058" lon="0.1777">
        <ele>122.71</ele>
        <time>2021-01-06T15:02:33Z</time>
      </trkpt>
      <trkpt lat="49.23087" lon="0.17756">
        <ele>122.71</ele>
        <time>2021-01-06T15:02:55Z</time>
      </trkpt>
      <trkpt lat="49.23113" lon="0.17746">
        <ele>122.22</ele>
        <time>2021-01-06T15:03:16Z</time>
      </trkpt>
      <trkpt lat="49.23137" lon="0.17743">
        <ele>122.71</ele>
        <time>2021-01-06T15:03:36Z</time>
      </trkpt>
      <trkpt lat="49.23161" lon="0.17744">
        <ele>122.71</ele>
        <time>2021-01-06T15:03:57Z</time>
      </trkpt>
      <trkpt lat="49.23184" lon="0.17745">
        <ele>122.71</ele>
        <time>2021-01-06T15:04:17Z</time>
      </trkpt>
      <trkpt lat="49.23208" lon="0.17746">
        <ele>122.71</ele>
        <time>2021-01-06T15:04:39Z</time>
      </trkpt>
      <trkpt lat="49.23217" lon="0.17745">
        <ele>122.71</ele>
        <time>2021-01-06T15:04:48Z</time>
      </trkpt>
      <trkpt lat="49.23248" lon="0.17735">
        <ele>122.22</ele>
        <time>2021-01-06T15:05:14Z</time>
      </trkpt>
      <trkpt lat="49.23275" lon="0.17721">
        <ele>122.22</ele>
        <time>2021-01-06T15:05:39Z</time>
      </trkpt>
      <trkpt lat="49.23301" lon="0.17704">
        <ele>121.74</ele>
        <time>2021-01-06T15:06:02Z</time>
      </trkpt>
      <trkpt lat="49.23325" lon="0.17686">
        <ele>120.78</ele>
        <time>2021-01-06T15:06:25Z</time>
      </trkpt>
      <trkpt lat="49.23346" lon="0.17669">
        <ele>120.78</ele>
        <time>2021-01-06T15:06:47Z</time>
      </trkpt>
      <trkpt lat="49.23366" lon="0.17651">
        <ele>120.78</ele>
        <time>2021-01-06T15:07:09Z</time>
      </trkpt>
      <trkpt lat="49.23386" lon="0.17633">
        <ele>120.3</ele>
        <time>2021-01-06T15:07:30Z</time>
      </trkpt>
      <trkpt lat="49.2341" lon="0.17616">
        <ele>119.34</ele>
        <time>2021-01-06T15:07:53Z</time>
      </trkpt>
      <trkpt lat="49.23428" lon="0.17607">
        <ele>118.86</ele>
        <time>2021-01-06T15:08:11Z</time>
      </trkpt>
      <trkpt lat="49.23449" lon="0.17595">
        <ele>118.38</ele>
        <time>2021-01-06T15:08:32Z</time>
      </trkpt>
      <trkpt lat="49.23473" lon="0.17578">
        <ele>116.94</ele>
        <time>2021-01-06T15:08:55Z</time>
      </trkpt>
      <trkpt lat="49.23491" lon="0.17557">
        <ele>117.42</ele>
        <time>2021-01-06T15:09:14Z</time>
      </trkpt>
      <trkpt lat="49.23505" lon="0.17537">
        <ele>116.94</ele>
        <time>2021-01-06T15:09:32Z</time>
      </trkpt>
      <trkpt lat="49.23513" lon="0.17525">
        <ele>116.94</ele>
        <time>2021-01-06T15:09:50Z</time>
      </trkpt>
      <trkpt lat="49.23513" lon="0.17525">
        <ele>116.94</ele>
        <time>2021-01-06T15:10:16Z</time>
      </trkpt>
      <trkpt lat="49.23528" lon="0.17507">
        <ele>116.94</ele>
        <time>2021-01-06T15:10:36Z</time>
      </trkpt>
      <trkpt lat="49.23541" lon="0.17475">
        <ele>115.5</ele>
        <time>2021-01-06T15:10:58Z</time>
      </trkpt>
      <trkpt lat="49.23547" lon="0.1743">
        <ele>114.53</ele>
        <time>2021-01-06T15:11:19Z</time>
      </trkpt>
      <trkpt lat="49.23544" lon="0.17389">
        <ele>113.57</ele>
        <time>2021-01-06T15:11:41Z</time>
      </trkpt>
      <trkpt lat="49.23544" lon="0.17361">
        <ele>113.09</ele>
        <time>2021-01-06T15:12:01Z</time>
      </trkpt>
      <trkpt lat="49.23543" lon="0.17334">
        <ele>112.13</ele>
        <time>2021-01-06T15:12:20Z</time>
      </trkpt>
      <trkpt lat="49.23552" lon="0.17324">
        <ele>111.65</ele>
        <time>2021-01-06T15:12:39Z</time>
      </trkpt>
      <trkpt lat="49.23554" lon="0.17323">
        <ele>111.65</ele>
        <time>2021-01-06T15:12:41Z</time>
      </trkpt>
      <trkpt lat="49.23576" lon="0.17312">
        <ele>111.17</ele>
        <time>2021-01-06T15:13:02Z</time>
      </trkpt>
      <trkpt lat="49.23599" lon="0.17296">
        <ele>111.17</ele>
        <time>2021-01-06T15:13:25Z</time>
      </trkpt>
      <trkpt lat="49.23616" lon="0.17277">
        <ele>112.61</ele>
        <time>2021-01-06T15:13:46Z</time>
      </trkpt>
      <trkpt lat="49.23635" lon="0.17257">
        <ele>113.09</ele>
        <time>2021-01-06T15:14:06Z</time>
      </trkpt>
      <trkpt lat="49.23639" lon="0.17252">
        <ele>113.57</ele>
        <time>2021-01-06T15:14:10Z</time>
      </trkpt>
      <trkpt lat="49.23664" lon="0.17233">
        <ele>113.57</ele>
        <time>2021-01-06T15:14:32Z</time>
      </trkpt>
      <trkpt lat="49.23685" lon="0.17213">
        <ele>113.57</ele>
        <time>2021-01-06T15:14:55Z</time>
      </trkpt>
      <trkpt lat="49.23706" lon="0.17195">
        <ele>113.57</ele>
        <time>2021-01-06T15:15:17Z</time>
      </trkpt>
      <trkpt lat="49.23722" lon="0.17211">
        <ele>114.05</ele>
        <time>2021-01-06T15:15:38Z</time>
      </trkpt>
      <trkpt lat="49.23743" lon="0.17229">
        <ele>114.05</ele>
        <time>2021-01-06T15:15:59Z</time>
      </trkpt>
      <trkpt lat="49.23758" lon="0.17249">
        <ele>114.05</ele>
        <time>2021-01-06T15:16:19Z</time>
      </trkpt>
      <trkpt lat="49.23774" lon="0.17274">
        <ele>114.53</ele>
        <time>2021-01-06T15:16:38Z</time>
      </trkpt>
      <trkpt lat="49.23793" lon="0.17289">
        <ele>114.53</ele>
        <time>2021-01-06T15:16:56Z</time>
      </trkpt>
      <trkpt lat="49.23813" lon="0.17299">
        <ele>115.01</ele>
        <time>2021-01-06T15:17:17Z</time>
      </trkpt>
      <trkpt lat="49.23829" lon="0.1731">
        <ele>115.01</ele>
        <time>2021-01-06T15:17:36Z</time>
      </trkpt>
      <trkpt lat="49.23848" lon="0.17321">
        <ele>115.01</ele>
        <time>2021-01-06T15:17:58Z</time>
      </trkpt>
      <trkpt lat="49.23861" lon="0.17332">
        <ele>114.53</ele>
        <time>2021-01-06T15:18:16Z</time>
      </trkpt>
      <trkpt lat="49.23888" lon="0.17344">
        <ele>114.53</ele>
        <time>2021-01-06T15:18:36Z</time>
      </trkpt>
      <trkpt lat="49.23908" lon="0.17355">
        <ele>114.05</ele>
        <time>2021-01-06T15:18:57Z</time>
      </trkpt>
      <trkpt lat="49.23926" lon="0.17367">
        <ele>114.05</ele>
        <time>2021-01-06T15:19:17Z</time>
      </trkpt>
      <trkpt lat="49.23945" lon="0.17375">
        <ele>114.05</ele>
        <time>2021-01-06T15:19:40Z</time>
      </trkpt>
      <trkpt lat="49.23966" lon="0.17388">
        <ele>112.61</ele>
        <time>2021-01-06T15:19:59Z</time>
      </trkpt>
      <trkpt lat="49.23983" lon="0.17406">
        <ele>112.61</ele>
        <time>2021-01-06T15:20:19Z</time>
      </trkpt>
      <trkpt lat="49.23997" lon="0.17414">
        <ele>112.13</ele>
        <time>2021-01-06T15:20:41Z</time>
      </trkpt>
      <trkpt lat="49.23997" lon="0.17416">
        <ele>112.13</ele>
        <time>2021-01-06T15:21:16Z</time>
      </trkpt>
      <trkpt lat="49.23996" lon="0.17412">
        <ele>112.13</ele>
        <time>2021-01-06T15:21:45Z</time>
      </trkpt>
      <trkpt lat="49.23995" lon="0.17415">
        <ele>112.13</ele>
        <time>2021-01-06T15:22:22Z</time>
      </trkpt>
      <trkpt lat="49.23995" lon="0.17414">
        <ele>112.13</ele>
        <time>2021-01-06T15:22:43Z</time>
      </trkpt>
      <trkpt lat="49.23995" lon="0.17413">
        <ele>112.13</ele>
        <time>2021-01-06T15:23:08Z</time>
      </trkpt>
      <trkpt lat="49.24009" lon="0.17424">
        <ele>112.13</ele>
        <time>2021-01-06T15:23:30Z</time>
      </trkpt>
      <trkpt lat="49.24033" lon="0.1743">
        <ele>112.61</ele>
        <time>2021-01-06T15:23:46Z</time>
      </trkpt>
      <trkpt lat="49.24047" lon="0.17438">
        <ele>112.61</ele>
        <time>2021-01-06T15:24:04Z</time>
      </trkpt>
      <trkpt lat="49.24063" lon="0.17442">
        <ele>112.61</ele>
        <time>2021-01-06T15:24:21Z</time>
      </trkpt>
      <trkpt lat="49.2408" lon="0.1745">
        <ele>112.13</ele>
        <time>2021-01-06T15:24:37Z</time>
      </trkpt>
      <trkpt lat="49.24098" lon="0.17461">
        <ele>111.65</ele>
        <time>2021-01-06T15:24:55Z</time>
      </trkpt>
      <trkpt lat="49.24113" lon="0.17472">
        <ele>111.65</ele>
        <time>2021-01-06T15:25:12Z</time>
      </trkpt>
      <trkpt lat="49.24125" lon="0.17483">
        <ele>111.65</ele>
        <time>2021-01-06T15:25:30Z</time>
      </trkpt>
      <trkpt lat="49.24136" lon="0.17496">
        <ele>111.17</ele>
        <time>2021-01-06T15:25:45Z</time>
      </trkpt>
      <trkpt lat="49.24151" lon="0.17504">
        <ele>111.17</ele>
        <time>2021-01-06T15:26:03Z</time>
      </trkpt>
      <trkpt lat="49.2417" lon="0.17515">
        <ele>111.17</ele>
        <time>2021-01-06T15:26:22Z</time>
      </trkpt>
      <trkpt lat="49.24196" lon="0.17531">
        <ele>111.17</ele>
        <time>2021-01-06T15:26:40Z</time>
      </trkpt>
      <trkpt lat="49.24218" lon="0.17546">
        <ele>111.17</ele>
        <time>2021-01-06T15:27:02Z</time>
      </trkpt>
      <trkpt lat="49.24234" lon="0.17558">
        <ele>110.69</ele>
        <time>2021-01-06T15:27:22Z</time>
      </trkpt>
      <trkpt lat="49.24251" lon="0.17568">
        <ele>110.21</ele>
        <time>2021-01-06T15:27:40Z</time>
      </trkpt>
      <trkpt lat="49.24273" lon="0.17586">
        <ele>110.21</ele>
        <time>2021-01-06T15:28:02Z</time>
      </trkpt>
      <trkpt lat="49.2429" lon="0.17611">
        <ele>109.73</ele>
        <time>2021-01-06T15:28:21Z</time>
      </trkpt>
      <trkpt lat="49.24308" lon="0.17626">
        <ele>109.25</ele>
        <time>2021-01-06T15:28:41Z</time>
      </trkpt>
      <trkpt lat="49.24338" lon="0.17639">
        <ele>108.77</ele>
        <time>2021-01-06T15:28:59Z</time>
      </trkpt>
      <trkpt lat="49.24348" lon="0.17663">
        <ele>108.77</ele>
        <time>2021-01-06T15:29:20Z</time>
      </trkpt>
      <trkpt lat="49.24365" lon="0.17681">
        <ele>108.29</ele>
        <time>2021-01-06T15:29:39Z</time>
      </trkpt>
      <trkpt lat="49.24372" lon="0.17716">
        <ele>108.29</ele>
        <time>2021-01-06T15:30:01Z</time>
      </trkpt>
      <trkpt lat="49.24388" lon="0.17749">
        <ele>107.32</ele>
        <time>2021-01-06T15:30:23Z</time>
      </trkpt>
      <trkpt lat="49.24397" lon="0.1778">
        <ele>106.36</ele>
        <time>2021-01-06T15:30:40Z</time>
      </trkpt>
      <trkpt lat="49.24409" lon="0.17802">
        <ele>107.81</ele>
        <time>2021-01-06T15:31:00Z</time>
      </trkpt>
      <trkpt lat="49.24411" lon="0.17814">
        <ele>106.36</ele>
        <time>2021-01-06T15:31:08Z</time>
      </trkpt>
      <trkpt lat="49.24425" lon="0.17849">
        <ele>105.88</ele>
        <time>2021-01-06T15:31:28Z</time>
      </trkpt>
      <trkpt lat="49.24444" lon="0.17873">
        <ele>105.88</ele>
        <time>2021-01-06T15:31:48Z</time>
      </trkpt>
      <trkpt lat="49.24464" lon="0.17888">
        <ele>105.4</ele>
        <time>2021-01-06T15:32:05Z</time>
      </trkpt>
      <trkpt lat="49.24484" lon="0.17903">
        <ele>104.92</ele>
        <time>2021-01-06T15:32:23Z</time>
      </trkpt>
      <trkpt lat="49.24508" lon="0.17919">
        <ele>104.44</ele>
        <time>2021-01-06T15:32:43Z</time>
      </trkpt>
      <trkpt lat="49.24528" lon="0.17942">
        <ele>104.44</ele>
        <time>2021-01-06T15:33:01Z</time>
      </trkpt>
      <trkpt lat="49.24526" lon="0.17967">
        <ele>104.44</ele>
        <time>2021-01-06T15:33:22Z</time>
      </trkpt>
      <trkpt lat="49.24516" lon="0.18006">
        <ele>105.4</ele>
        <time>2021-01-06T15:33:45Z</time>
      </trkpt>
      <trkpt lat="49.2451" lon="0.18037">
        <ele>105.88</ele>
        <time>2021-01-06T15:34:06Z</time>
      </trkpt>
      <trkpt lat="49.24504" lon="0.18055">
        <ele>106.36</ele>
        <time>2021-01-06T15:34:29Z</time>
      </trkpt>
      <trkpt lat="49.2449" lon="0.18086">
        <ele>105.88</ele>
        <time>2021-01-06T15:34:51Z</time>
      </trkpt>
      <trkpt lat="49.24475" lon="0.18135">
        <ele>106.36</ele>
        <time>2021-01-06T15:35:13Z</time>
      </trkpt>
      <trkpt lat="49.24464" lon="0.18156">
        <ele>106.84</ele>
        <time>2021-01-06T15:35:33Z</time>
      </trkpt>
      <trkpt lat="49.24448" lon="0.18184">
        <ele>106.84</ele>
        <time>2021-01-06T15:35:59Z</time>
      </trkpt>
      <trkpt lat="49.24434" lon="0.18214">
        <ele>107.32</ele>
        <time>2021-01-06T15:36:19Z</time>
      </trkpt>
      <trkpt lat="49.24423" lon="0.1824">
        <ele>107.32</ele>
        <time>2021-01-06T15:36:35Z</time>
      </trkpt>
      <trkpt lat="49.24406" lon="0.18269">
        <ele>107.32</ele>
        <time>2021-01-06T15:36:52Z</time>
      </trkpt>
      <trkpt lat="49.24393" lon="0.18295">
        <ele>105.88</ele>
        <time>2021-01-06T15:37:12Z</time>
      </trkpt>
      <trkpt lat="49.24392" lon="0.18296">
        <ele>105.88</ele>
        <time>2021-01-06T15:37:13Z</time>
      </trkpt>
      <trkpt lat="49.24385" lon="0.18318">
        <ele>105.4</ele>
        <time>2021-01-06T15:37:32Z</time>
      </trkpt>
      <trkpt lat="49.24378" lon="0.18344">
        <ele>104.92</ele>
        <time>2021-01-06T15:37:52Z</time>
      </trkpt>
      <trkpt lat="49.24377" lon="0.18367">
        <ele>104.44</ele>
        <time>2021-01-06T15:38:10Z</time>
      </trkpt>
      <trkpt lat="49.24381" lon="0.18393">
        <ele>103.96</ele>
        <time>2021-01-06T15:38:30Z</time>
      </trkpt>
      <trkpt lat="49.24393" lon="0.18406">
        <ele>103.48</ele>
        <time>2021-01-06T15:38:48Z</time>
      </trkpt>
      <trkpt lat="49.2441" lon="0.18427">
        <ele>103.48</ele>
        <time>2021-01-06T15:39:09Z</time>
      </trkpt>
      <trkpt lat="49.24427" lon="0.18448">
        <ele>103</ele>
        <time>2021-01-06T15:39:29Z</time>
      </trkpt>
      <trkpt lat="49.24442" lon="0.18465">
        <ele>103</ele>
        <time>2021-01-06T15:39:47Z</time>
      </trkpt>
      <trkpt lat="49.24458" lon="0.18489">
        <ele>102.52</ele>
        <time>2021-01-06T15:40:09Z</time>
      </trkpt>
      <trkpt lat="49.24468" lon="0.1851">
        <ele>102.04</ele>
        <time>2021-01-06T15:40:27Z</time>
      </trkpt>
      <trkpt lat="49.24481" lon="0.1854">
        <ele>102.04</ele>
        <time>2021-01-06T15:40:48Z</time>
      </trkpt>
      <trkpt lat="49.24491" lon="0.18568">
        <ele>102.04</ele>
        <time>2021-01-06T15:41:09Z</time>
      </trkpt>
      <trkpt lat="49.24503" lon="0.18595">
        <ele>102.04</ele>
        <time>2021-01-06T15:41:30Z</time>
      </trkpt>
      <trkpt lat="49.24517" lon="0.18614">
        <ele>102.04</ele>
        <time>2021-01-06T15:41:50Z</time>
      </trkpt>
      <trkpt lat="49.24532" lon="0.18626">
        <ele>102.04</ele>
        <time>2021-01-06T15:42:11Z</time>
      </trkpt>
      <trkpt lat="49.24548" lon="0.18631">
        <ele>101.56</ele>
        <time>2021-01-06T15:42:29Z</time>
      </trkpt>
      <trkpt lat="49.24568" lon="0.1864">
        <ele>101.56</ele>
        <time>2021-01-06T15:42:46Z</time>
      </trkpt>
      <trkpt lat="49.24584" lon="0.18647">
        <ele>101.08</ele>
        <time>2021-01-06T15:43:05Z</time>
      </trkpt>
      <trkpt lat="49.24604" lon="0.18646">
        <ele>101.08</ele>
        <time>2021-01-06T15:43:25Z</time>
      </trkpt>
      <trkpt lat="49.24618" lon="0.18654">
        <ele>100.6</ele>
        <time>2021-01-06T15:43:45Z</time>
      </trkpt>
      <trkpt lat="49.24637" lon="0.1866">
        <ele>100.6</ele>
        <time>2021-01-06T15:44:05Z</time>
      </trkpt>
      <trkpt lat="49.24659" lon="0.18666">
        <ele>100.11</ele>
        <time>2021-01-06T15:44:25Z</time>
      </trkpt>
      <trkpt lat="49.2468" lon="0.18669">
        <ele>99.63</ele>
        <time>2021-01-06T15:44:44Z</time>
      </trkpt>
      <trkpt lat="49.24706" lon="0.18666">
        <ele>98.67</ele>
        <time>2021-01-06T15:45:05Z</time>
      </trkpt>
      <trkpt lat="49.24725" lon="0.1867">
        <ele>98.67</ele>
        <time>2021-01-06T15:45:22Z</time>
      </trkpt>
      <trkpt lat="49.2475" lon="0.18666">
        <ele>98.67</ele>
        <time>2021-01-06T15:45:42Z</time>
      </trkpt>
      <trkpt lat="49.24787" lon="0.18662">
        <ele>98.67</ele>
        <time>2021-01-06T15:46:02Z</time>
      </trkpt>
      <trkpt lat="49.248" lon="0.18661">
        <ele>98.67</ele>
        <time>2021-01-06T15:46:20Z</time>
      </trkpt>
      <trkpt lat="49.24825" lon="0.18657">
        <ele>98.67</ele>
        <time>2021-01-06T15:46:37Z</time>
      </trkpt>
      <trkpt lat="49.2484" lon="0.18655">
        <ele>98.19</ele>
        <time>2021-01-06T15:46:56Z</time>
      </trkpt>
      <trkpt lat="49.24856" lon="0.18655">
        <ele>98.19</ele>
        <time>2021-01-06T15:47:18Z</time>
      </trkpt>
      <trkpt lat="49.24875" lon="0.18651">
        <ele>98.19</ele>
        <time>2021-01-06T15:47:38Z</time>
      </trkpt>
      <trkpt lat="49.24893" lon="0.18652">
        <ele>97.23</ele>
        <time>2021-01-06T15:47:57Z</time>
      </trkpt>
      <trkpt lat="49.24911" lon="0.18659">
        <ele>97.23</ele>
        <time>2021-01-06T15:48:17Z</time>
      </trkpt>
      <trkpt lat="49.24931" lon="0.18662">
        <ele>96.27</ele>
        <time>2021-01-06T15:48:31Z</time>
      </trkpt>
      <trkpt lat="49.24961" lon="0.1866">
        <ele>95.79</ele>
        <time>2021-01-06T15:48:51Z</time>
      </trkpt>
      <trkpt lat="49.2499" lon="0.18658">
        <ele>93.87</ele>
        <time>2021-01-06T15:49:12Z</time>
      </trkpt>
      <trkpt lat="49.25017" lon="0.18654">
        <ele>92.42</ele>
        <time>2021-01-06T15:49:31Z</time>
      </trkpt>
      <trkpt lat="49.25029" lon="0.18653">
        <ele>91.46</ele>
        <time>2021-01-06T15:49:47Z</time>
      </trkpt>
      <trkpt lat="49.25047" lon="0.18649">
        <ele>90.5</ele>
        <time>2021-01-06T15:50:05Z</time>
      </trkpt>
      <trkpt lat="49.25069" lon="0.18645">
        <ele>90.5</ele>
        <time>2021-01-06T15:50:22Z</time>
      </trkpt>
      <trkpt lat="49.25093" lon="0.18636">
        <ele>91.46</ele>
        <time>2021-01-06T15:50:42Z</time>
      </trkpt>
      <trkpt lat="49.25117" lon="0.18621">
        <ele>93.39</ele>
        <time>2021-01-06T15:51:04Z</time>
      </trkpt>
      <trkpt lat="49.25137" lon="0.186">
        <ele>93.87</ele>
        <time>2021-01-06T15:51:26Z</time>
      </trkpt>
      <trkpt lat="49.25155" lon="0.1858">
        <ele>94.83</ele>
        <time>2021-01-06T15:51:45Z</time>
      </trkpt>
      <trkpt lat="49.2517" lon="0.18568">
        <ele>94.35</ele>
        <time>2021-01-06T15:51:58Z</time>
      </trkpt>
      <trkpt lat="49.25188" lon="0.18549">
        <ele>94.83</ele>
        <time>2021-01-06T15:52:19Z</time>
      </trkpt>
      <trkpt lat="49.25211" lon="0.18529">
        <ele>94.83</ele>
        <time>2021-01-06T15:52:40Z</time>
      </trkpt>
      <trkpt lat="49.2523" lon="0.18508">
        <ele>94.83</ele>
        <time>2021-01-06T15:53:00Z</time>
      </trkpt>
      <trkpt lat="49.25251" lon="0.18486">
        <ele>94.83</ele>
        <time>2021-01-06T15:53:22Z</time>
      </trkpt>
      <trkpt lat="49.2527" lon="0.18465">
        <ele>94.83</ele>
        <time>2021-01-06T15:53:42Z</time>
      </trkpt>
      <trkpt lat="49.25289" lon="0.18439">
        <ele>95.31</ele>
        <time>2021-01-06T15:54:02Z</time>
      </trkpt>
      <trkpt lat="49.25307" lon="0.18411">
        <ele>95.31</ele>
        <time>2021-01-06T15:54:23Z</time>
      </trkpt>
      <trkpt lat="49.2532" lon="0.18375">
        <ele>95.31</ele>
        <time>2021-01-06T15:54:43Z</time>
      </trkpt>
      <trkpt lat="49.25323" lon="0.18361">
        <ele>95.31</ele>
        <time>2021-01-06T15:54:59Z</time>
      </trkpt>
      <trkpt lat="49.25331" lon="0.18339">
        <ele>94.35</ele>
        <time>2021-01-06T15:55:15Z</time>
      </trkpt>
      <trkpt lat="49.25341" lon="0.18309">
        <ele>94.35</ele>
        <time>2021-01-06T15:55:36Z</time>
      </trkpt>
      <trkpt lat="49.25353" lon="0.18279">
        <ele>94.83</ele>
        <time>2021-01-06T15:55:56Z</time>
      </trkpt>
      <trkpt lat="49.25363" lon="0.1824">
        <ele>93.87</ele>
        <time>2021-01-06T15:56:19Z</time>
      </trkpt>
      <trkpt lat="49.25367" lon="0.18195">
        <ele>93.39</ele>
        <time>2021-01-06T15:56:41Z</time>
      </trkpt>
      <trkpt lat="49.25363" lon="0.18175">
        <ele>92.9</ele>
        <time>2021-01-06T15:56:55Z</time>
      </trkpt>
      <trkpt lat="49.25358" lon="0.18155">
        <ele>92.9</ele>
        <time>2021-01-06T15:57:11Z</time>
      </trkpt>
      <trkpt lat="49.25364" lon="0.18125">
        <ele>92.42</ele>
        <time>2021-01-06T15:57:29Z</time>
      </trkpt>
      <trkpt lat="49.2538" lon="0.18103">
        <ele>93.87</ele>
        <time>2021-01-06T15:57:46Z</time>
      </trkpt>
      <trkpt lat="49.2538" lon="0.18102">
        <ele>93.87</ele>
        <time>2021-01-06T15:57:47Z</time>
      </trkpt>
      <trkpt lat="49.25388" lon="0.18093">
        <ele>93.87</ele>
        <time>2021-01-06T15:57:56Z</time>
      </trkpt>
      <trkpt lat="49.25404" lon="0.18077">
        <ele>93.87</ele>
        <time>2021-01-06T15:58:16Z</time>
      </trkpt>
      <trkpt lat="49.2541" lon="0.1805">
        <ele>94.35</ele>
        <time>2021-01-06T15:58:35Z</time>
      </trkpt>
      <trkpt lat="49.25422" lon="0.18022">
        <ele>94.35</ele>
        <time>2021-01-06T15:58:57Z</time>
      </trkpt>
      <trkpt lat="49.25439" lon="0.17987">
        <ele>94.35</ele>
        <time>2021-01-06T15:59:19Z</time>
      </trkpt>
      <trkpt lat="49.25444" lon="0.17959">
        <ele>94.83</ele>
        <time>2021-01-06T15:59:39Z</time>
      </trkpt>
      <trkpt lat="49.25453" lon="0.17928">
        <ele>94.83</ele>
        <time>2021-01-06T15:59:58Z</time>
      </trkpt>
      <trkpt lat="49.25463" lon="0.17895">
        <ele>94.83</ele>
        <time>2021-01-06T16:00:18Z</time>
      </trkpt>
      <trkpt lat="49.25477" lon="0.17866">
        <ele>95.31</ele>
        <time>2021-01-06T16:00:41Z</time>
      </trkpt>
      <trkpt lat="49.25492" lon="0.17842">
        <ele>93.87</ele>
        <time>2021-01-06T16:00:59Z</time>
      </trkpt>
      <trkpt lat="49.25504" lon="0.17825">
        <ele>94.35</ele>
        <time>2021-01-06T16:01:17Z</time>
      </trkpt>
      <trkpt lat="49.25523" lon="0.17805">
        <ele>94.35</ele>
        <time>2021-01-06T16:01:38Z</time>
      </trkpt>
      <trkpt lat="49.25541" lon="0.17785">
        <ele>94.35</ele>
        <time>2021-01-06T16:01:59Z</time>
      </trkpt>
      <trkpt lat="49.25552" lon="0.17763">
        <ele>94.35</ele>
        <time>2021-01-06T16:02:17Z</time>
      </trkpt>
      <trkpt lat="49.2556" lon="0.17737">
        <ele>94.35</ele>
        <time>2021-01-06T16:02:35Z</time>
      </trkpt>
      <trkpt lat="49.25567" lon="0.17715">
        <ele>93.87</ele>
        <time>2021-01-06T16:02:52Z</time>
      </trkpt>
      <trkpt lat="49.25573" lon="0.17689">
        <ele>93.87</ele>
        <time>2021-01-06T16:03:10Z</time>
      </trkpt>
      <trkpt lat="49.25585" lon="0.1766">
        <ele>93.87</ele>
        <time>2021-01-06T16:03:29Z</time>
      </trkpt>
      <trkpt lat="49.25599" lon="0.17632">
        <ele>93.39</ele>
        <time>2021-01-06T16:03:49Z</time>
      </trkpt>
      <trkpt lat="49.25609" lon="0.17615">
        <ele>93.39</ele>
        <time>2021-01-06T16:04:06Z</time>
      </trkpt>
      <trkpt lat="49.25619" lon="0.17597">
        <ele>93.39</ele>
        <time>2021-01-06T16:04:24Z</time>
      </trkpt>
      <trkpt lat="49.25627" lon="0.17573">
        <ele>93.39</ele>
        <time>2021-01-06T16:04:44Z</time>
      </trkpt>
      <trkpt lat="49.25628" lon="0.17544">
        <ele>92.9</ele>
        <time>2021-01-06T16:05:04Z</time>
      </trkpt>
      <trkpt lat="49.25641" lon="0.17511">
        <ele>92.42</ele>
        <time>2021-01-06T16:05:25Z</time>
      </trkpt>
      <trkpt lat="49.25646" lon="0.17487">
        <ele>92.42</ele>
        <time>2021-01-06T16:05:43Z</time>
      </trkpt>
      <trkpt lat="49.25656" lon="0.17465">
        <ele>92.42</ele>
        <time>2021-01-06T16:06:00Z</time>
      </trkpt>
      <trkpt lat="49.25669" lon="0.17441">
        <ele>92.42</ele>
        <time>2021-01-06T16:06:17Z</time>
      </trkpt>
      <trkpt lat="49.25683" lon="0.17416">
        <ele>91.94</ele>
        <time>2021-01-06T16:06:36Z</time>
      </trkpt>
      <trkpt lat="49.25695" lon="0.17392">
        <ele>91.46</ele>
        <time>2021-01-06T16:06:53Z</time>
      </trkpt>
      <trkpt lat="49.2571" lon="0.17369">
        <ele>90.98</ele>
        <time>2021-01-06T16:07:09Z</time>
      </trkpt>
      <trkpt lat="49.25716" lon="0.17354">
        <ele>90.02</ele>
        <time>2021-01-06T16:07:24Z</time>
      </trkpt>
      <trkpt lat="49.25723" lon="0.17328">
        <ele>87.14</ele>
        <time>2021-01-06T16:07:43Z</time>
      </trkpt>
      <trkpt lat="49.25726" lon="0.17299">
        <ele>85.21</ele>
        <time>2021-01-06T16:08:04Z</time>
      </trkpt>
      <trkpt lat="49.25731" lon="0.17276">
        <ele>84.25</ele>
        <time>2021-01-06T16:08:20Z</time>
      </trkpt>
      <trkpt lat="49.2574" lon="0.1728">
        <ele>83.77</ele>
        <time>2021-01-06T16:08:35Z</time>
      </trkpt>
      <trkpt lat="49.2575" lon="0.17295">
        <ele>83.77</ele>
        <time>2021-01-06T16:08:51Z</time>
      </trkpt>
      <trkpt lat="49.25757" lon="0.17306">
        <ele>83.77</ele>
        <time>2021-01-06T16:09:04Z</time>
      </trkpt>
      <trkpt lat="49.25762" lon="0.17321">
        <ele>83.77</ele>
        <time>2021-01-06T16:09:18Z</time>
      </trkpt>
      <trkpt lat="49.25774" lon="0.17337">
        <ele>83.77</ele>
        <time>2021-01-06T16:09:33Z</time>
      </trkpt>
      <trkpt lat="49.25784" lon="0.17353">
        <ele>84.73</ele>
        <time>2021-01-06T16:09:49Z</time>
      </trkpt>
      <trkpt lat="49.25794" lon="0.1737">
        <ele>82.81</ele>
        <time>2021-01-06T16:10:05Z</time>
      </trkpt>
      <trkpt lat="49.258" lon="0.17386">
        <ele>84.73</ele>
        <time>2021-01-06T16:10:21Z</time>
      </trkpt>
      <trkpt lat="49.25812" lon="0.17402">
        <ele>85.21</ele>
        <time>2021-01-06T16:10:37Z</time>
      </trkpt>
      <trkpt lat="49.25825" lon="0.17419">
        <ele>85.69</ele>
        <time>2021-01-06T16:10:54Z</time>
      </trkpt>
      <trkpt lat="49.25836" lon="0.17434">
        <ele>85.69</ele>
        <time>2021-01-06T16:11:09Z</time>
      </trkpt>
      <trkpt lat="49.25847" lon="0.17455">
        <ele>85.69</ele>
        <time>2021-01-06T16:11:25Z</time>
      </trkpt>
      <trkpt lat="49.25858" lon="0.1747">
        <ele>84.25</ele>
        <time>2021-01-06T16:11:41Z</time>
      </trkpt>
      <trkpt lat="49.25865" lon="0.17484">
        <ele>84.25</ele>
        <time>2021-01-06T16:11:56Z</time>
      </trkpt>
      <trkpt lat="49.25875" lon="0.17504">
        <ele>84.25</ele>
        <time>2021-01-06T16:12:11Z</time>
      </trkpt>
      <trkpt lat="49.25885" lon="0.17519">
        <ele>84.25</ele>
        <time>2021-01-06T16:12:26Z</time>
      </trkpt>
      <trkpt lat="49.25898" lon="0.17543">
        <ele>85.21</ele>
        <time>2021-01-06T16:12:44Z</time>
      </trkpt>
      <trkpt lat="49.25906" lon="0.17564">
        <ele>86.18</ele>
        <time>2021-01-06T16:12:59Z</time>
      </trkpt>
      <trkpt lat="49.25909" lon="0.17587">
        <ele>87.62</ele>
        <time>2021-01-06T16:13:16Z</time>
      </trkpt>
      <trkpt lat="49.25908" lon="0.17609">
        <ele>88.1</ele>
        <time>2021-01-06T16:13:32Z</time>
      </trkpt>
      <trkpt lat="49.25907" lon="0.17635">
        <ele>88.1</ele>
        <time>2021-01-06T16:13:48Z</time>
      </trkpt>
      <trkpt lat="49.25908" lon="0.17637">
        <ele>86.66</ele>
        <time>2021-01-06T16:13:50Z</time>
      </trkpt>
      <trkpt lat="49.25912" lon="0.17655">
        <ele>86.18</ele>
        <time>2021-01-06T16:14:04Z</time>
      </trkpt>
      <trkpt lat="49.25923" lon="0.17674">
        <ele>85.69</ele>
        <time>2021-01-06T16:14:24Z</time>
      </trkpt>
      <trkpt lat="49.25935" lon="0.17686">
        <ele>85.21</ele>
        <time>2021-01-06T16:14:37Z</time>
      </trkpt>
      <trkpt lat="49.25949" lon="0.177">
        <ele>84.73</ele>
        <time>2021-01-06T16:14:50Z</time>
      </trkpt>
      <trkpt lat="49.25955" lon="0.17708">
        <ele>84.73</ele>
        <time>2021-01-06T16:14:58Z</time>
      </trkpt>
      <trkpt lat="49.25972" lon="0.17727">
        <ele>83.77</ele>
        <time>2021-01-06T16:15:17Z</time>
      </trkpt>
      <trkpt lat="49.25987" lon="0.1774">
        <ele>83.77</ele>
        <time>2021-01-06T16:15:33Z</time>
      </trkpt>
      <trkpt lat="49.26" lon="0.17746">
        <ele>82.81</ele>
        <time>2021-01-06T16:15:45Z</time>
      </trkpt>
      <trkpt lat="49.26013" lon="0.17753">
        <ele>82.33</ele>
        <time>2021-01-06T16:15:58Z</time>
      </trkpt>
      <trkpt lat="49.26031" lon="0.17761">
        <ele>81.37</ele>
        <time>2021-01-06T16:16:14Z</time>
      </trkpt>
      <trkpt lat="49.26043" lon="0.17769">
        <ele>80.89</ele>
        <time>2021-01-06T16:16:29Z</time>
      </trkpt>
      <trkpt lat="49.26055" lon="0.17781">
        <ele>80.89</ele>
        <time>2021-01-06T16:16:43Z</time>
      </trkpt>
      <trkpt lat="49.26069" lon="0.17795">
        <ele>80.41</ele>
        <time>2021-01-06T16:16:58Z</time>
      </trkpt>
      <trkpt lat="49.26081" lon="0.17808">
        <ele>79.45</ele>
        <time>2021-01-06T16:17:14Z</time>
      </trkpt>
      <trkpt lat="49.26093" lon="0.17822">
        <ele>78.48</ele>
        <time>2021-01-06T16:17:30Z</time>
      </trkpt>
      <trkpt lat="49.26106" lon="0.17832">
        <ele>78</ele>
        <time>2021-01-06T16:17:45Z</time>
      </trkpt>
      <trkpt lat="49.26121" lon="0.17846">
        <ele>77.52</ele>
        <time>2021-01-06T16:18:00Z</time>
      </trkpt>
      <trkpt lat="49.26135" lon="0.17859">
        <ele>75.6</ele>
        <time>2021-01-06T16:18:15Z</time>
      </trkpt>
      <trkpt lat="49.26145" lon="0.17871">
        <ele>74.16</ele>
        <time>2021-01-06T16:18:28Z</time>
      </trkpt>
      <trkpt lat="49.26156" lon="0.17881">
        <ele>72.72</ele>
        <time>2021-01-06T16:18:43Z</time>
      </trkpt>
      <trkpt lat="49.26168" lon="0.17885">
        <ele>70.79</ele>
        <time>2021-01-06T16:18:58Z</time>
      </trkpt>
      <trkpt lat="49.26176" lon="0.17887">
        <ele>68.87</ele>
        <time>2021-01-06T16:19:16Z</time>
      </trkpt>
      <trkpt lat="49.26187" lon="0.17901">
        <ele>67.91</ele>
        <time>2021-01-06T16:19:32Z</time>
      </trkpt>
      <trkpt lat="49.26202" lon="0.17919">
        <ele>67.91</ele>
        <time>2021-01-06T16:19:47Z</time>
      </trkpt>
      <trkpt lat="49.26217" lon="0.17937">
        <ele>66.47</ele>
        <time>2021-01-06T16:20:04Z</time>
      </trkpt>
      <trkpt lat="49.26228" lon="0.17949">
        <ele>65.51</ele>
        <time>2021-01-06T16:20:19Z</time>
      </trkpt>
      <trkpt lat="49.26236" lon="0.17958">
        <ele>65.03</ele>
        <time>2021-01-06T16:20:31Z</time>
      </trkpt>
      <trkpt lat="49.26247" lon="0.1797">
        <ele>63.58</ele>
        <time>2021-01-06T16:20:45Z</time>
      </trkpt>
      <trkpt lat="49.26255" lon="0.17978">
        <ele>62.14</ele>
        <time>2021-01-06T16:20:57Z</time>
      </trkpt>
      <trkpt lat="49.2627" lon="0.17992">
        <ele>59.74</ele>
        <time>2021-01-06T16:21:14Z</time>
      </trkpt>
      <trkpt lat="49.2628" lon="0.18003">
        <ele>58.78</ele>
        <time>2021-01-06T16:21:27Z</time>
      </trkpt>
      <trkpt lat="49.26289" lon="0.1802">
        <ele>55.89</ele>
        <time>2021-01-06T16:21:46Z</time>
      </trkpt>
      <trkpt lat="49.26296" lon="0.18037">
        <ele>53.01</ele>
        <time>2021-01-06T16:22:03Z</time>
      </trkpt>
      <trkpt lat="49.26303" lon="0.1805">
        <ele>51.09</ele>
        <time>2021-01-06T16:22:18Z</time>
      </trkpt>
      <trkpt lat="49.26311" lon="0.18063">
        <ele>49.16</ele>
        <time>2021-01-06T16:22:31Z</time>
      </trkpt>
      <trkpt lat="49.26319" lon="0.18075">
        <ele>47.24</ele>
        <time>2021-01-06T16:22:46Z</time>
      </trkpt>
      <trkpt lat="49.26323" lon="0.18094">
        <ele>46.76</ele>
        <time>2021-01-06T16:23:02Z</time>
      </trkpt>
      <trkpt lat="49.26321" lon="0.1811">
        <ele>48.68</ele>
        <time>2021-01-06T16:23:17Z</time>
      </trkpt>
      <trkpt lat="49.26317" lon="0.18129">
        <ele>50.61</ele>
        <time>2021-01-06T16:23:36Z</time>
      </trkpt>
      <trkpt lat="49.26313" lon="0.18151">
        <ele>52.05</ele>
        <time>2021-01-06T16:23:55Z</time>
      </trkpt>
      <trkpt lat="49.26308" lon="0.18173">
        <ele>54.45</ele>
        <time>2021-01-06T16:24:13Z</time>
      </trkpt>
      <trkpt lat="49.26307" lon="0.18192">
        <ele>55.89</ele>
        <time>2021-01-06T16:24:29Z</time>
      </trkpt>
      <trkpt lat="49.26304" lon="0.18207">
        <ele>56.86</ele>
        <time>2021-01-06T16:24:43Z</time>
      </trkpt>
      <trkpt lat="49.26301" lon="0.18221">
        <ele>58.78</ele>
        <time>2021-01-06T16:24:58Z</time>
      </trkpt>
      <trkpt lat="49.26298" lon="0.18239">
        <ele>60.22</ele>
        <time>2021-01-06T16:25:13Z</time>
      </trkpt>
      <trkpt lat="49.26302" lon="0.18258">
        <ele>62.14</ele>
        <time>2021-01-06T16:25:27Z</time>
      </trkpt>
      <trkpt lat="49.2631" lon="0.18276">
        <ele>62.14</ele>
        <time>2021-01-06T16:25:42Z</time>
      </trkpt>
      <trkpt lat="49.2632" lon="0.18296">
        <ele>63.1</ele>
        <time>2021-01-06T16:25:57Z</time>
      </trkpt>
      <trkpt lat="49.26324" lon="0.18312">
        <ele>64.55</ele>
        <time>2021-01-06T16:26:12Z</time>
      </trkpt>
      <trkpt lat="49.2633" lon="0.18333">
        <ele>65.03</ele>
        <time>2021-01-06T16:26:27Z</time>
      </trkpt>
      <trkpt lat="49.26335" lon="0.18352">
        <ele>65.99</ele>
        <time>2021-01-06T16:26:42Z</time>
      </trkpt>
      <trkpt lat="49.26341" lon="0.1837">
        <ele>66.95</ele>
        <time>2021-01-06T16:26:58Z</time>
      </trkpt>
      <trkpt lat="49.26349" lon="0.18386">
        <ele>68.39</ele>
        <time>2021-01-06T16:27:15Z</time>
      </trkpt>
      <trkpt lat="49.26357" lon="0.184">
        <ele>70.31</ele>
        <time>2021-01-06T16:27:29Z</time>
      </trkpt>
      <trkpt lat="49.26366" lon="0.18415">
        <ele>71.76</ele>
        <time>2021-01-06T16:27:44Z</time>
      </trkpt>
      <trkpt lat="49.26377" lon="0.18429">
        <ele>74.16</ele>
        <time>2021-01-06T16:28:01Z</time>
      </trkpt>
      <trkpt lat="49.26386" lon="0.1844">
        <ele>76.56</ele>
        <time>2021-01-06T16:28:18Z</time>
      </trkpt>
      <trkpt lat="49.26393" lon="0.18451">
        <ele>78.48</ele>
        <time>2021-01-06T16:28:33Z</time>
      </trkpt>
      <trkpt lat="49.26404" lon="0.1846">
        <ele>80.89</ele>
        <time>2021-01-06T16:28:49Z</time>
      </trkpt>
      <trkpt lat="49.26414" lon="0.1847">
        <ele>83.77</ele>
        <time>2021-01-06T16:29:06Z</time>
      </trkpt>
      <trkpt lat="49.26424" lon="0.18476">
        <ele>86.18</ele>
        <time>2021-01-06T16:29:22Z</time>
      </trkpt>
      <trkpt lat="49.26435" lon="0.18492">
        <ele>87.62</ele>
        <time>2021-01-06T16:29:38Z</time>
      </trkpt>
      <trkpt lat="49.26446" lon="0.18503">
        <ele>88.58</ele>
        <time>2021-01-06T16:29:53Z</time>
      </trkpt>
      <trkpt lat="49.26454" lon="0.18518">
        <ele>89.06</ele>
        <time>2021-01-06T16:30:07Z</time>
      </trkpt>
      <trkpt lat="49.26459" lon="0.18531">
        <ele>89.54</ele>
        <time>2021-01-06T16:30:28Z</time>
      </trkpt>
      <trkpt lat="49.26462" lon="0.18534">
        <ele>90.02</ele>
        <time>2021-01-06T16:30:45Z</time>
      </trkpt>
      <trkpt lat="49.26461" lon="0.18534">
        <ele>90.02</ele>
        <time>2021-01-06T16:31:08Z</time>
      </trkpt>
      <trkpt lat="49.26466" lon="0.18538">
        <ele>90.5</ele>
        <time>2021-01-06T16:31:40Z</time>
      </trkpt>
      <trkpt lat="49.26472" lon="0.18546">
        <ele>90.5</ele>
        <time>2021-01-06T16:31:59Z</time>
      </trkpt>
      <trkpt lat="49.2649" lon="0.18565">
        <ele>90.98</ele>
        <time>2021-01-06T16:32:19Z</time>
      </trkpt>
      <trkpt lat="49.26504" lon="0.18592">
        <ele>92.42</ele>
        <time>2021-01-06T16:32:37Z</time>
      </trkpt>
      <trkpt lat="49.26516" lon="0.18609">
        <ele>92.42</ele>
        <time>2021-01-06T16:32:53Z</time>
      </trkpt>
      <trkpt lat="49.26528" lon="0.18627">
        <ele>92.9</ele>
        <time>2021-01-06T16:33:12Z</time>
      </trkpt>
      <trkpt lat="49.26549" lon="0.18649">
        <ele>93.87</ele>
        <time>2021-01-06T16:33:32Z</time>
      </trkpt>
      <trkpt lat="49.26572" lon="0.1866">
        <ele>93.87</ele>
        <time>2021-01-06T16:33:51Z</time>
      </trkpt>
      <trkpt lat="49.26588" lon="0.18674">
        <ele>93.87</ele>
        <time>2021-01-06T16:34:08Z</time>
      </trkpt>
      <trkpt lat="49.26581" lon="0.18712">
        <ele>94.35</ele>
        <time>2021-01-06T16:34:29Z</time>
      </trkpt>
      <trkpt lat="49.26567" lon="0.1873">
        <ele>94.35</ele>
        <time>2021-01-06T16:34:48Z</time>
      </trkpt>
      <trkpt lat="49.26547" lon="0.18757">
        <ele>94.83</ele>
        <time>2021-01-06T16:35:11Z</time>
      </trkpt>
      <trkpt lat="49.26522" lon="0.18785">
        <ele>94.83</ele>
        <time>2021-01-06T16:35:35Z</time>
      </trkpt>
      <trkpt lat="49.26502" lon="0.18812">
        <ele>94.83</ele>
        <time>2021-01-06T16:35:54Z</time>
      </trkpt>
      <trkpt lat="49.26476" lon="0.18834">
        <ele>95.79</ele>
        <time>2021-01-06T16:36:18Z</time>
      </trkpt>
      <trkpt lat="49.26457" lon="0.18847">
        <ele>95.79</ele>
        <time>2021-01-06T16:36:37Z</time>
      </trkpt>
      <trkpt lat="49.26429" lon="0.18853">
        <ele>95.79</ele>
        <time>2021-01-06T16:37:01Z</time>
      </trkpt>
      <trkpt lat="49.26404" lon="0.18862">
        <ele>96.27</ele>
        <time>2021-01-06T16:37:24Z</time>
      </trkpt>
      <trkpt lat="49.26384" lon="0.18879">
        <ele>96.27</ele>
        <time>2021-01-06T16:37:46Z</time>
      </trkpt>
      <trkpt lat="49.26366" lon="0.18905">
        <ele>96.75</ele>
        <time>2021-01-06T16:38:06Z</time>
      </trkpt>
      <trkpt lat="49.26347" lon="0.18931">
        <ele>96.75</ele>
        <time>2021-01-06T16:38:25Z</time>
      </trkpt>
      <trkpt lat="49.26335" lon="0.18944">
        <ele>97.23</ele>
        <time>2021-01-06T16:38:44Z</time>
      </trkpt>
      <trkpt lat="49.26319" lon="0.18958">
        <ele>97.71</ele>
        <time>2021-01-06T16:39:03Z</time>
      </trkpt>
      <trkpt lat="49.26286" lon="0.1898">
        <ele>98.19</ele>
        <time>2021-01-06T16:39:24Z</time>
      </trkpt>
      <trkpt lat="49.26268" lon="0.18995">
        <ele>98.19</ele>
        <time>2021-01-06T16:39:46Z</time>
      </trkpt>
      <trkpt lat="49.26247" lon="0.19009">
        <ele>98.19</ele>
        <time>2021-01-06T16:40:06Z</time>
      </trkpt>
      <trkpt lat="49.26224" lon="0.19022">
        <ele>97.71</ele>
        <time>2021-01-06T16:40:29Z</time>
      </trkpt>
      <trkpt lat="49.26205" lon="0.19038">
        <ele>97.71</ele>
        <time>2021-01-06T16:40:48Z</time>
      </trkpt>
      <trkpt lat="49.26173" lon="0.19059">
        <ele>98.19</ele>
        <time>2021-01-06T16:41:08Z</time>
      </trkpt>
      <trkpt lat="49.26156" lon="0.19067">
        <ele>97.71</ele>
        <time>2021-01-06T16:41:29Z</time>
      </trkpt>
      <trkpt lat="49.26132" lon="0.19065">
        <ele>97.71</ele>
        <time>2021-01-06T16:41:51Z</time>
      </trkpt>
      <trkpt lat="49.26103" lon="0.19064">
        <ele>97.23</ele>
        <time>2021-01-06T16:42:11Z</time>
      </trkpt>
      <trkpt lat="49.26086" lon="0.19067">
        <ele>97.23</ele>
        <time>2021-01-06T16:42:29Z</time>
      </trkpt>
      <trkpt lat="49.26067" lon="0.19068">
        <ele>96.75</ele>
        <time>2021-01-06T16:42:48Z</time>
      </trkpt>
      <trkpt lat="49.26049" lon="0.19076">
        <ele>96.75</ele>
        <time>2021-01-06T16:43:06Z</time>
      </trkpt>
      <trkpt lat="49.2602" lon="0.1908">
        <ele>96.27</ele>
        <time>2021-01-06T16:43:27Z</time>
      </trkpt>
      <trkpt lat="49.26003" lon="0.19087">
        <ele>96.27</ele>
        <time>2021-01-06T16:43:46Z</time>
      </trkpt>
      <trkpt lat="49.25982" lon="0.19093">
        <ele>94.35</ele>
        <time>2021-01-06T16:44:07Z</time>
      </trkpt>
      <trkpt lat="49.2596" lon="0.19093">
        <ele>93.87</ele>
        <time>2021-01-06T16:44:27Z</time>
      </trkpt>
      <trkpt lat="49.25938" lon="0.19092">
        <ele>93.39</ele>
        <time>2021-01-06T16:44:47Z</time>
      </trkpt>
      <trkpt lat="49.25909" lon="0.19084">
        <ele>92.42</ele>
        <time>2021-01-06T16:45:06Z</time>
      </trkpt>
      <trkpt lat="49.25876" lon="0.19081">
        <ele>91.46</ele>
        <time>2021-01-06T16:45:28Z</time>
      </trkpt>
      <trkpt lat="49.25843" lon="0.19077">
        <ele>91.46</ele>
        <time>2021-01-06T16:45:51Z</time>
      </trkpt>
      <trkpt lat="49.25818" lon="0.19081">
        <ele>90.98</ele>
        <time>2021-01-06T16:46:06Z</time>
      </trkpt>
      <trkpt lat="49.25807" lon="0.19124">
        <ele>90.98</ele>
        <time>2021-01-06T16:46:25Z</time>
      </trkpt>
      <trkpt lat="49.25801" lon="0.19167">
        <ele>90.5</ele>
        <time>2021-01-06T16:46:47Z</time>
      </trkpt>
      <trkpt lat="49.25796" lon="0.192">
        <ele>90.02</ele>
        <time>2021-01-06T16:47:05Z</time>
      </trkpt>
      <trkpt lat="49.25794" lon="0.19229">
        <ele>89.54</ele>
        <time>2021-01-06T16:47:22Z</time>
      </trkpt>
      <trkpt lat="49.25794" lon="0.1926">
        <ele>89.54</ele>
        <time>2021-01-06T16:47:40Z</time>
      </trkpt>
      <trkpt lat="49.25793" lon="0.19294">
        <ele>88.58</ele>
        <time>2021-01-06T16:47:57Z</time>
      </trkpt>
      <trkpt lat="49.25793" lon="0.19328">
        <ele>86.66</ele>
        <time>2021-01-06T16:48:17Z</time>
      </trkpt>
      <trkpt lat="49.25798" lon="0.19369">
        <ele>84.73</ele>
        <time>2021-01-06T16:48:38Z</time>
      </trkpt>
      <trkpt lat="49.25796" lon="0.19417">
        <ele>82.81</ele>
        <time>2021-01-06T16:48:58Z</time>
      </trkpt>
      <trkpt lat="49.25796" lon="0.19458">
        <ele>80.89</ele>
        <time>2021-01-06T16:49:18Z</time>
      </trkpt>
      <trkpt lat="49.25794" lon="0.19501">
        <ele>78.97</ele>
        <time>2021-01-06T16:49:40Z</time>
      </trkpt>
      <trkpt lat="49.25794" lon="0.19541">
        <ele>77.52</ele>
        <time>2021-01-06T16:50:00Z</time>
      </trkpt>
      <trkpt lat="49.25793" lon="0.19581">
        <ele>75.6</ele>
        <time>2021-01-06T16:50:21Z</time>
      </trkpt>
      <trkpt lat="49.25795" lon="0.19609">
        <ele>76.08</ele>
        <time>2021-01-06T16:50:42Z</time>
      </trkpt>
      <trkpt lat="49.25795" lon="0.19639">
        <ele>76.08</ele>
        <time>2021-01-06T16:50:59Z</time>
      </trkpt>
      <trkpt lat="49.258" lon="0.19678">
        <ele>75.6</ele>
        <time>2021-01-06T16:51:19Z</time>
      </trkpt>
      <trkpt lat="49.25807" lon="0.19716">
        <ele>75.6</ele>
        <time>2021-01-06T16:51:39Z</time>
      </trkpt>
      <trkpt lat="49.25809" lon="0.19741">
        <ele>74.64</ele>
        <time>2021-01-06T16:51:51Z</time>
      </trkpt>
      <trkpt lat="49.25823" lon="0.19771">
        <ele>70.79</ele>
        <time>2021-01-06T16:52:11Z</time>
      </trkpt>
      <trkpt lat="49.25837" lon="0.19796">
        <ele>67.91</ele>
        <time>2021-01-06T16:52:29Z</time>
      </trkpt>
      <trkpt lat="49.25856" lon="0.19829">
        <ele>64.55</ele>
        <time>2021-01-06T16:52:47Z</time>
      </trkpt>
      <trkpt lat="49.25873" lon="0.1984">
        <ele>62.14</ele>
        <time>2021-01-06T16:53:02Z</time>
      </trkpt>
      <trkpt lat="49.25894" lon="0.19842">
        <ele>62.14</ele>
        <time>2021-01-06T16:53:18Z</time>
      </trkpt>
      <trkpt lat="49.25906" lon="0.19848">
        <ele>62.14</ele>
        <time>2021-01-06T16:53:27Z</time>
      </trkpt>
      <trkpt lat="49.25922" lon="0.19853">
        <ele>62.14</ele>
        <time>2021-01-06T16:53:39Z</time>
      </trkpt>
      <trkpt lat="49.25929" lon="0.19862">
        <ele>61.66</ele>
        <time>2021-01-06T16:53:45Z</time>
      </trkpt>
      <trkpt lat="49.25949" lon="0.19884">
        <ele>60.22</ele>
        <time>2021-01-06T16:54:05Z</time>
      </trkpt>
      <trkpt lat="49.25968" lon="0.19912">
        <ele>58.3</ele>
        <time>2021-01-06T16:54:23Z</time>
      </trkpt>
      <trkpt lat="49.25988" lon="0.19925">
        <ele>56.86</ele>
        <time>2021-01-06T16:54:42Z</time>
      </trkpt>
      <trkpt lat="49.26013" lon="0.19937">
        <ele>54.93</ele>
        <time>2021-01-06T16:55:02Z</time>
      </trkpt>
      <trkpt lat="49.26033" lon="0.19956">
        <ele>51.57</ele>
        <time>2021-01-06T16:55:19Z</time>
      </trkpt>
      <trkpt lat="49.26055" lon="0.19967">
        <ele>50.13</ele>
        <time>2021-01-06T16:55:39Z</time>
      </trkpt>
      <trkpt lat="49.26078" lon="0.19979">
        <ele>47.72</ele>
        <time>2021-01-06T16:55:59Z</time>
      </trkpt>
      <trkpt lat="49.26099" lon="0.19994">
        <ele>46.76</ele>
        <time>2021-01-06T16:56:17Z</time>
      </trkpt>
      <trkpt lat="49.2612" lon="0.2001">
        <ele>45.32</ele>
        <time>2021-01-06T16:56:35Z</time>
      </trkpt>
      <trkpt lat="49.2614" lon="0.20015">
        <ele>44.84</ele>
        <time>2021-01-06T16:56:50Z</time>
      </trkpt>
      <trkpt lat="49.26159" lon="0.20015">
        <ele>43.88</ele>
        <time>2021-01-06T16:57:10Z</time>
      </trkpt>
      <trkpt lat="49.26172" lon="0.20035">
        <ele>41.95</ele>
        <time>2021-01-06T16:57:27Z</time>
      </trkpt>
      <trkpt lat="49.26174" lon="0.20077">
        <ele>40.99</ele>
        <time>2021-01-06T16:57:47Z</time>
      </trkpt>
      <trkpt lat="49.26175" lon="0.20089">
        <ele>40.99</ele>
        <time>2021-01-06T16:57:53Z</time>
      </trkpt>
      <trkpt lat="49.26176" lon="0.20117">
        <ele>40.99</ele>
        <time>2021-01-06T16:58:08Z</time>
      </trkpt>
      <trkpt lat="49.26181" lon="0.2012">
        <ele>40.99</ele>
        <time>2021-01-06T16:58:12Z</time>
      </trkpt>
      <trkpt lat="49.26202" lon="0.20124">
        <ele>40.99</ele>
        <time>2021-01-06T16:58:30Z</time>
      </trkpt>
      <trkpt lat="49.26224" lon="0.20124">
        <ele>40.99</ele>
        <time>2021-01-06T16:58:49Z</time>
      </trkpt>
      <trkpt lat="49.26243" lon="0.20123">
        <ele>40.99</ele>
        <time>2021-01-06T16:59:06Z</time>
      </trkpt>
      <trkpt lat="49.26261" lon="0.20123">
        <ele>41.47</ele>
        <time>2021-01-06T16:59:23Z</time>
      </trkpt>
      <trkpt lat="49.26284" lon="0.20119">
        <ele>41.47</ele>
        <time>2021-01-06T16:59:43Z</time>
      </trkpt>
      <trkpt lat="49.26319" lon="0.20108">
        <ele>41.47</ele>
        <time>2021-01-06T17:00:09Z</time>
      </trkpt>
      <trkpt lat="49.26333" lon="0.20113">
        <ele>40.99</ele>
        <time>2021-01-06T17:00:23Z</time>
      </trkpt>
      <trkpt lat="49.26338" lon="0.20127">
        <ele>40.99</ele>
        <time>2021-01-06T17:00:33Z</time>
      </trkpt>
      <trkpt lat="49.26349" lon="0.20161">
        <ele>39.55</ele>
        <time>2021-01-06T17:00:55Z</time>
      </trkpt>
      <trkpt lat="49.26358" lon="0.20188">
        <ele>37.63</ele>
        <time>2021-01-06T17:01:14Z</time>
      </trkpt>
      <trkpt lat="49.26363" lon="0.20217">
        <ele>35.23</ele>
        <time>2021-01-06T17:01:34Z</time>
      </trkpt>
      <trkpt lat="49.26361" lon="0.20261">
        <ele>32.34</ele>
        <time>2021-01-06T17:01:52Z</time>
      </trkpt>
      <trkpt lat="49.26359" lon="0.20293">
        <ele>29.94</ele>
        <time>2021-01-06T17:02:14Z</time>
      </trkpt>
      <trkpt lat="49.26356" lon="0.20313">
        <ele>28.5</ele>
        <time>2021-01-06T17:02:24Z</time>
      </trkpt>
      <trkpt lat="49.26353" lon="0.20343">
        <ele>27.53</ele>
        <time>2021-01-06T17:02:38Z</time>
      </trkpt>
      <trkpt lat="49.26357" lon="0.20383">
        <ele>26.09</ele>
        <time>2021-01-06T17:02:58Z</time>
      </trkpt>
      <trkpt lat="49.26374" lon="0.20385">
        <ele>26.57</ele>
        <time>2021-01-06T17:03:12Z</time>
      </trkpt>
      <trkpt lat="49.26396" lon="0.2038">
        <ele>26.57</ele>
        <time>2021-01-06T17:03:32Z</time>
      </trkpt>
      <trkpt lat="49.26411" lon="0.20373">
        <ele>28.02</ele>
        <time>2021-01-06T17:03:46Z</time>
      </trkpt>
      <trkpt lat="49.26439" lon="0.20358">
        <ele>28.98</ele>
        <time>2021-01-06T17:04:10Z</time>
      </trkpt>
      <trkpt lat="49.26469" lon="0.20345">
        <ele>29.46</ele>
        <time>2021-01-06T17:04:34Z</time>
      </trkpt>
      <trkpt lat="49.26488" lon="0.20332">
        <ele>29.94</ele>
        <time>2021-01-06T17:04:53Z</time>
      </trkpt>
      <trkpt lat="49.26516" lon="0.20322">
        <ele>28.5</ele>
        <time>2021-01-06T17:05:12Z</time>
      </trkpt>
      <trkpt lat="49.26543" lon="0.20308">
        <ele>28.02</ele>
        <time>2021-01-06T17:05:34Z</time>
      </trkpt>
      <trkpt lat="49.26569" lon="0.20289">
        <ele>26.57</ele>
        <time>2021-01-06T17:05:54Z</time>
      </trkpt>
      <trkpt lat="49.2659" lon="0.20271">
        <ele>26.09</ele>
        <time>2021-01-06T17:06:12Z</time>
      </trkpt>
      <trkpt lat="49.2661" lon="0.20263">
        <ele>25.13</ele>
        <time>2021-01-06T17:06:29Z</time>
      </trkpt>
      <trkpt lat="49.26626" lon="0.20274">
        <ele>23.69</ele>
        <time>2021-01-06T17:06:46Z</time>
      </trkpt>
      <trkpt lat="49.26641" lon="0.203">
        <ele>22.25</ele>
        <time>2021-01-06T17:07:05Z</time>
      </trkpt>
      <trkpt lat="49.26666" lon="0.20312">
        <ele>19.84</ele>
        <time>2021-01-06T17:07:25Z</time>
      </trkpt>
      <trkpt lat="49.26685" lon="0.20318">
        <ele>16.48</ele>
        <time>2021-01-06T17:07:44Z</time>
      </trkpt>
      <trkpt lat="49.2671" lon="0.20307">
        <ele>13.12</ele>
        <time>2021-01-06T17:08:02Z</time>
      </trkpt>
      <trkpt lat="49.26724" lon="0.20295">
        <ele>9.75</ele>
        <time>2021-01-06T17:08:21Z</time>
      </trkpt>
      <trkpt lat="49.26738" lon="0.20277">
        <ele>6.87</ele>
        <time>2021-01-06T17:08:39Z</time>
      </trkpt>
      <trkpt lat="49.26747" lon="0.20256">
        <ele>3.5</ele>
        <time>2021-01-06T17:08:55Z</time>
      </trkpt>
      <trkpt lat="49.26763" lon="0.20218">
        <ele>0.62</ele>
        <time>2021-01-06T17:09:13Z</time>
      </trkpt>
      <trkpt lat="49.26778" lon="0.20182">
        <ele>-1.3</ele>
        <time>2021-01-06T17:09:31Z</time>
      </trkpt>
      <trkpt lat="49.26782" lon="0.20173">
        <ele>-1.3</ele>
        <time>2021-01-06T17:09:36Z</time>
      </trkpt>
      <trkpt lat="49.26802" lon="0.2016">
        <ele>-3.23</ele>
        <time>2021-01-06T17:09:51Z</time>
      </trkpt>
      <trkpt lat="49.26813" lon="0.20146">
        <ele>-3.71</ele>
        <time>2021-01-06T17:10:02Z</time>
      </trkpt>
      <trkpt lat="49.26831" lon="0.20122">
        <ele>-4.67</ele>
        <time>2021-01-06T17:10:20Z</time>
      </trkpt>
      <trkpt lat="49.26848" lon="0.20095">
        <ele>-4.19</ele>
        <time>2021-01-06T17:10:37Z</time>
      </trkpt>
      <trkpt lat="49.26866" lon="0.20069">
        <ele>-5.15</ele>
        <time>2021-01-06T17:10:56Z</time>
      </trkpt>
      <trkpt lat="49.26883" lon="0.20046">
        <ele>-5.63</ele>
        <time>2021-01-06T17:11:13Z</time>
      </trkpt>
      <trkpt lat="49.26904" lon="0.20021">
        <ele>-6.59</ele>
        <time>2021-01-06T17:11:32Z</time>
      </trkpt>
      <trkpt lat="49.26921" lon="0.20002">
        <ele>-7.07</ele>
        <time>2021-01-06T17:11:51Z</time>
      </trkpt>
      <trkpt lat="49.26936" lon="0.19982">
        <ele>-7.07</ele>
        <time>2021-01-06T17:12:07Z</time>
      </trkpt>
      <trkpt lat="49.26953" lon="0.19964">
        <ele>-7.55</ele>
        <time>2021-01-06T17:12:24Z</time>
      </trkpt>
      <trkpt lat="49.26969" lon="0.19947">
        <ele>-7.55</ele>
        <time>2021-01-06T17:12:40Z</time>
      </trkpt>
      <trkpt lat="49.26981" lon="0.19932">
        <ele>-7.55</ele>
        <time>2021-01-06T17:12:52Z</time>
      </trkpt>
      <trkpt lat="49.26994" lon="0.19916">
        <ele>-6.59</ele>
        <time>2021-01-06T17:13:07Z</time>
      </trkpt>
      <trkpt lat="49.26995" lon="0.19914">
        <ele>-6.11</ele>
        <time>2021-01-06T17:13:09Z</time>
      </trkpt>
      <trkpt lat="49.27004" lon="0.199">
        <ele>-7.55</ele>
        <time>2021-01-06T17:13:21Z</time>
      </trkpt>
      <trkpt lat="49.2702" lon="0.19878">
        <ele>-7.55</ele>
        <time>2021-01-06T17:13:39Z</time>
      </trkpt>
      <trkpt lat="49.27037" lon="0.19857">
        <ele>-7.55</ele>
        <time>2021-01-06T17:13:57Z</time>
      </trkpt>
      <trkpt lat="49.27064" lon="0.19832">
        <ele>-7.55</ele>
        <time>2021-01-06T17:14:20Z</time>
      </trkpt>
      <trkpt lat="49.27083" lon="0.19828">
        <ele>-7.55</ele>
        <time>2021-01-06T17:14:34Z</time>
      </trkpt>
      <trkpt lat="49.2709" lon="0.19808">
        <ele>-7.55</ele>
        <time>2021-01-06T17:14:49Z</time>
      </trkpt>
      <trkpt lat="49.27098" lon="0.19775">
        <ele>-7.55</ele>
        <time>2021-01-06T17:15:08Z</time>
      </trkpt>
      <trkpt lat="49.27108" lon="0.19744">
        <ele>-7.55</ele>
        <time>2021-01-06T17:15:25Z</time>
      </trkpt>
      <trkpt lat="49.27118" lon="0.19713">
        <ele>-8.03</ele>
        <time>2021-01-06T17:15:43Z</time>
      </trkpt>
      <trkpt lat="49.27134" lon="0.1968">
        <ele>-7.55</ele>
        <time>2021-01-06T17:16:03Z</time>
      </trkpt>
      <trkpt lat="49.27145" lon="0.19656">
        <ele>-7.55</ele>
        <time>2021-01-06T17:16:18Z</time>
      </trkpt>
      <trkpt lat="49.27157" lon="0.19637">
        <ele>-7.55</ele>
        <time>2021-01-06T17:16:33Z</time>
      </trkpt>
      <trkpt lat="49.2717" lon="0.19611">
        <ele>-7.07</ele>
        <time>2021-01-06T17:16:50Z</time>
      </trkpt>
      <trkpt lat="49.27182" lon="0.19588">
        <ele>-7.07</ele>
        <time>2021-01-06T17:17:04Z</time>
      </trkpt>
      <trkpt lat="49.27195" lon="0.19567">
        <ele>-7.07</ele>
        <time>2021-01-06T17:17:20Z</time>
      </trkpt>
      <trkpt lat="49.27209" lon="0.19541">
        <ele>-6.59</ele>
        <time>2021-01-06T17:17:38Z</time>
      </trkpt>
      <trkpt lat="49.27226" lon="0.19512">
        <ele>-7.07</ele>
        <time>2021-01-06T17:17:57Z</time>
      </trkpt>
      <trkpt lat="49.27243" lon="0.19483">
        <ele>-6.59</ele>
        <time>2021-01-06T17:18:17Z</time>
      </trkpt>
      <trkpt lat="49.27262" lon="0.19453">
        <ele>-6.59</ele>
        <time>2021-01-06T17:18:37Z</time>
      </trkpt>
      <trkpt lat="49.27275" lon="0.19435">
        <ele>-6.59</ele>
        <time>2021-01-06T17:18:52Z</time>
      </trkpt>
      <trkpt lat="49.27289" lon="0.19413">
        <ele>-6.11</ele>
        <time>2021-01-06T17:19:08Z</time>
      </trkpt>
      <trkpt lat="49.27301" lon="0.19394">
        <ele>-6.11</ele>
        <time>2021-01-06T17:19:22Z</time>
      </trkpt>
      <trkpt lat="49.2732" lon="0.19367">
        <ele>-5.63</ele>
        <time>2021-01-06T17:19:43Z</time>
      </trkpt>
      <trkpt lat="49.27339" lon="0.1934">
        <ele>-5.63</ele>
        <time>2021-01-06T17:20:01Z</time>
      </trkpt>
      <trkpt lat="49.27357" lon="0.19313">
        <ele>-5.15</ele>
        <time>2021-01-06T17:20:21Z</time>
      </trkpt>
      <trkpt lat="49.27375" lon="0.19288">
        <ele>-5.15</ele>
        <time>2021-01-06T17:20:41Z</time>
      </trkpt>
      <trkpt lat="49.27394" lon="0.19266">
        <ele>-5.15</ele>
        <time>2021-01-06T17:20:59Z</time>
      </trkpt>
      <trkpt lat="49.2741" lon="0.1924">
        <ele>-4.67</ele>
        <time>2021-01-06T17:21:20Z</time>
      </trkpt>
      <trkpt lat="49.27413" lon="0.19229">
        <ele>-4.67</ele>
        <time>2021-01-06T17:21:35Z</time>
      </trkpt>
      <trkpt lat="49.27411" lon="0.19227">
        <ele>-3.23</ele>
        <time>2021-01-06T17:21:41Z</time>
      </trkpt>
      <trkpt lat="49.27421" lon="0.19206">
        <ele>-2.75</ele>
        <time>2021-01-06T17:21:57Z</time>
      </trkpt>
      <trkpt lat="49.2744" lon="0.19182">
        <ele>-2.27</ele>
        <time>2021-01-06T17:22:15Z</time>
      </trkpt>
      <trkpt lat="49.27463" lon="0.19159">
        <ele>-2.27</ele>
        <time>2021-01-06T17:22:36Z</time>
      </trkpt>
      <trkpt lat="49.27482" lon="0.19132">
        <ele>-1.79</ele>
        <time>2021-01-06T17:22:54Z</time>
      </trkpt>
      <trkpt lat="49.27492" lon="0.19118">
        <ele>-1.3</ele>
        <time>2021-01-06T17:23:08Z</time>
      </trkpt>
      <trkpt lat="49.27512" lon="0.19098">
        <ele>-0.82</ele>
        <time>2021-01-06T17:23:27Z</time>
      </trkpt>
      <trkpt lat="49.27516" lon="0.19085">
        <ele>-0.82</ele>
        <time>2021-01-06T17:23:32Z</time>
      </trkpt>
      <trkpt lat="49.27524" lon="0.19073">
        <ele>-0.82</ele>
        <time>2021-01-06T17:23:43Z</time>
      </trkpt>
      <trkpt lat="49.27544" lon="0.1905">
        <ele>0.14</ele>
        <time>2021-01-06T17:24:02Z</time>
      </trkpt>
      <trkpt lat="49.27563" lon="0.19025">
        <ele>1.1</ele>
        <time>2021-01-06T17:24:22Z</time>
      </trkpt>
      <trkpt lat="49.2758" lon="0.19001">
        <ele>2.54</ele>
        <time>2021-01-06T17:24:42Z</time>
      </trkpt>
      <trkpt lat="49.276" lon="0.18977">
        <ele>3.5</ele>
        <time>2021-01-06T17:25:01Z</time>
      </trkpt>
      <trkpt lat="49.27619" lon="0.18952">
        <ele>3.98</ele>
        <time>2021-01-06T17:25:20Z</time>
      </trkpt>
      <trkpt lat="49.27633" lon="0.18934">
        <ele>4.46</ele>
        <time>2021-01-06T17:25:36Z</time>
      </trkpt>
      <trkpt lat="49.27656" lon="0.18911">
        <ele>4.46</ele>
        <time>2021-01-06T17:25:59Z</time>
      </trkpt>
      <trkpt lat="49.27679" lon="0.18895">
        <ele>4.46</ele>
        <time>2021-01-06T17:26:18Z</time>
      </trkpt>
      <trkpt lat="49.27701" lon="0.18884">
        <ele>3.5</ele>
        <time>2021-01-06T17:26:37Z</time>
      </trkpt>
      <trkpt lat="49.27725" lon="0.18872">
        <ele>2.54</ele>
        <time>2021-01-06T17:26:58Z</time>
      </trkpt>
      <trkpt lat="49.27734" lon="0.18869">
        <ele>2.54</ele>
        <time>2021-01-06T17:27:07Z</time>
      </trkpt>
      <trkpt lat="49.27758" lon="0.18858">
        <ele>2.06</ele>
        <time>2021-01-06T17:27:26Z</time>
      </trkpt>
      <trkpt lat="49.27777" lon="0.18848">
        <ele>1.58</ele>
        <time>2021-01-06T17:27:42Z</time>
      </trkpt>
      <trkpt lat="49.27798" lon="0.18837">
        <ele>1.1</ele>
        <time>2021-01-06T17:27:59Z</time>
      </trkpt>
      <trkpt lat="49.27819" lon="0.18828">
        <ele>1.1</ele>
        <time>2021-01-06T17:28:17Z</time>
      </trkpt>
      <trkpt lat="49.2784" lon="0.18819">
        <ele>1.1</ele>
        <time>2021-01-06T17:28:35Z</time>
      </trkpt>
      <trkpt lat="49.27859" lon="0.18809">
        <ele>0.62</ele>
        <time>2021-01-06T17:28:52Z</time>
      </trkpt>
      <trkpt lat="49.2788" lon="0.18798">
        <ele>0.62</ele>
        <time>2021-01-06T17:29:11Z</time>
      </trkpt>
      <trkpt lat="49.27896" lon="0.18789">
        <ele>1.1</ele>
        <time>2021-01-06T17:29:28Z</time>
      </trkpt>
      <trkpt lat="49.27916" lon="0.18781">
        <ele>1.1</ele>
        <time>2021-01-06T17:29:46Z</time>
      </trkpt>
      <trkpt lat="49.27938" lon="0.18772">
        <ele>1.1</ele>
        <time>2021-01-06T17:30:05Z</time>
      </trkpt>
      <trkpt lat="49.27959" lon="0.18761">
        <ele>1.1</ele>
        <time>2021-01-06T17:30:23Z</time>
      </trkpt>
      <trkpt lat="49.27974" lon="0.18754">
        <ele>1.1</ele>
        <time>2021-01-06T17:30:37Z</time>
      </trkpt>
      <trkpt lat="49.27992" lon="0.18744">
        <ele>1.1</ele>
        <time>2021-01-06T17:30:52Z</time>
      </trkpt>
      <trkpt lat="49.2801" lon="0.18737">
        <ele>1.1</ele>
        <time>2021-01-06T17:31:09Z</time>
      </trkpt>
      <trkpt lat="49.28021" lon="0.18732">
        <ele>1.1</ele>
        <time>2021-01-06T17:31:21Z</time>
      </trkpt>
      <trkpt lat="49.28041" lon="0.18722">
        <ele>1.1</ele>
        <time>2021-01-06T17:31:38Z</time>
      </trkpt>
      <trkpt lat="49.28057" lon="0.18714">
        <ele>1.1</ele>
        <time>2021-01-06T17:31:53Z</time>
      </trkpt>
      <trkpt lat="49.28076" lon="0.18704">
        <ele>1.58</ele>
        <time>2021-01-06T17:32:10Z</time>
      </trkpt>
      <trkpt lat="49.28093" lon="0.18695">
        <ele>1.58</ele>
        <time>2021-01-06T17:32:26Z</time>
      </trkpt>
      <trkpt lat="49.28099" lon="0.18691">
        <ele>1.1</ele>
        <time>2021-01-06T17:32:37Z</time>
      </trkpt>
      <trkpt lat="49.28103" lon="0.18678">
        <ele>1.1</ele>
        <time>2021-01-06T17:32:45Z</time>
      </trkpt>
      <trkpt lat="49.28108" lon="0.18668">
        <ele>1.1</ele>
        <time>2021-01-06T17:32:53Z</time>
      </trkpt>
      <trkpt lat="49.2811" lon="0.18659">
        <ele>1.1</ele>
        <time>2021-01-06T17:32:58Z</time>
      </trkpt>
      <trkpt lat="49.28115" lon="0.18636">
        <ele>0.62</ele>
        <time>2021-01-06T17:33:10Z</time>
      </trkpt>
      <trkpt lat="49.28116" lon="0.18598">
        <ele>1.1</ele>
        <time>2021-01-06T17:33:28Z</time>
      </trkpt>
      <trkpt lat="49.28116" lon="0.18559">
        <ele>2.06</ele>
        <time>2021-01-06T17:33:48Z</time>
      </trkpt>
      <trkpt lat="49.28117" lon="0.18529">
        <ele>3.02</ele>
        <time>2021-01-06T17:34:05Z</time>
      </trkpt>
      <trkpt lat="49.2812" lon="0.18501">
        <ele>4.94</ele>
        <time>2021-01-06T17:34:22Z</time>
      </trkpt>
      <trkpt lat="49.2813" lon="0.18475">
        <ele>5.91</ele>
        <time>2021-01-06T17:34:40Z</time>
      </trkpt>
      <trkpt lat="49.28147" lon="0.1845">
        <ele>6.39</ele>
        <time>2021-01-06T17:35:01Z</time>
      </trkpt>
      <trkpt lat="49.28168" lon="0.18433">
        <ele>6.39</ele>
        <time>2021-01-06T17:35:22Z</time>
      </trkpt>
      <trkpt lat="49.28177" lon="0.18419">
        <ele>6.39</ele>
        <time>2021-01-06T17:35:34Z</time>
      </trkpt>
      <trkpt lat="49.28198" lon="0.18401">
        <ele>4.94</ele>
        <time>2021-01-06T17:35:53Z</time>
      </trkpt>
      <trkpt lat="49.28219" lon="0.18381">
        <ele>3.5</ele>
        <time>2021-01-06T17:36:14Z</time>
      </trkpt>
      <trkpt lat="49.28237" lon="0.18358">
        <ele>3.02</ele>
        <time>2021-01-06T17:36:34Z</time>
      </trkpt>
      <trkpt lat="49.28257" lon="0.1833">
        <ele>3.02</ele>
        <time>2021-01-06T17:36:58Z</time>
      </trkpt>
      <trkpt lat="49.28264" lon="0.18304">
        <ele>2.54</ele>
        <time>2021-01-06T17:37:14Z</time>
      </trkpt>
      <trkpt lat="49.28252" lon="0.1827">
        <ele>1.1</ele>
        <time>2021-01-06T17:37:33Z</time>
      </trkpt>
      <trkpt lat="49.28251" lon="0.18265">
        <ele>1.1</ele>
        <time>2021-01-06T17:37:36Z</time>
      </trkpt>
      <trkpt lat="49.28251" lon="0.18243">
        <ele>0.14</ele>
        <time>2021-01-06T17:37:53Z</time>
      </trkpt>
      <trkpt lat="49.28251" lon="0.18241">
        <ele>0.14</ele>
        <time>2021-01-06T17:37:57Z</time>
      </trkpt>
      <trkpt lat="49.28247" lon="0.18214">
        <ele>0.14</ele>
        <time>2021-01-06T17:38:14Z</time>
      </trkpt>
      <trkpt lat="49.28246" lon="0.18209">
        <ele>1.1</ele>
        <time>2021-01-06T17:38:17Z</time>
      </trkpt>
      <trkpt lat="49.28233" lon="0.18186">
        <ele>2.54</ele>
        <time>2021-01-06T17:38:35Z</time>
      </trkpt>
      <trkpt lat="49.28231" lon="0.18185">
        <ele>2.54</ele>
        <time>2021-01-06T17:38:37Z</time>
      </trkpt>
      <trkpt lat="49.28213" lon="0.18186">
        <ele>4.94</ele>
        <time>2021-01-06T17:38:54Z</time>
      </trkpt>
      <trkpt lat="49.2821" lon="0.18185">
        <ele>5.42</ele>
        <time>2021-01-06T17:38:57Z</time>
      </trkpt>
      <trkpt lat="49.28196" lon="0.18179">
        <ele>6.39</ele>
        <time>2021-01-06T17:39:11Z</time>
      </trkpt>
      <trkpt lat="49.28186" lon="0.18172">
        <ele>7.35</ele>
        <time>2021-01-06T17:39:21Z</time>
      </trkpt>
      <trkpt lat="49.28172" lon="0.18151">
        <ele>8.79</ele>
        <time>2021-01-06T17:39:38Z</time>
      </trkpt>
      <trkpt lat="49.28163" lon="0.18124">
        <ele>9.75</ele>
        <time>2021-01-06T17:39:56Z</time>
      </trkpt>
      <trkpt lat="49.28161" lon="0.18092">
        <ele>10.23</ele>
        <time>2021-01-06T17:40:14Z</time>
      </trkpt>
      <trkpt lat="49.28162" lon="0.18059">
        <ele>11.19</ele>
        <time>2021-01-06T17:40:33Z</time>
      </trkpt>
      <trkpt lat="49.28166" lon="0.18036">
        <ele>11.19</ele>
        <time>2021-01-06T17:40:47Z</time>
      </trkpt>
      <trkpt lat="49.28158" lon="0.18006">
        <ele>11.67</ele>
        <time>2021-01-06T17:41:05Z</time>
      </trkpt>
      <trkpt lat="49.28146" lon="0.17996">
        <ele>13.12</ele>
        <time>2021-01-06T17:41:20Z</time>
      </trkpt>
      <trkpt lat="49.28138" lon="0.17988">
        <ele>14.56</ele>
        <time>2021-01-06T17:41:29Z</time>
      </trkpt>
      <trkpt lat="49.28126" lon="0.17978">
        <ele>16.48</ele>
        <time>2021-01-06T17:41:42Z</time>
      </trkpt>
      <trkpt lat="49.28123" lon="0.17972">
        <ele>16.48</ele>
        <time>2021-01-06T17:41:46Z</time>
      </trkpt>
      <trkpt lat="49.28108" lon="0.17957">
        <ele>18.88</ele>
        <time>2021-01-06T17:42:05Z</time>
      </trkpt>
      <trkpt lat="49.28106" lon="0.17956">
        <ele>18.88</ele>
        <time>2021-01-06T17:42:07Z</time>
      </trkpt>
      <trkpt lat="49.28093" lon="0.17947">
        <ele>20.81</ele>
        <time>2021-01-06T17:42:23Z</time>
      </trkpt>
      <trkpt lat="49.28076" lon="0.17938">
        <ele>22.73</ele>
        <time>2021-01-06T17:42:40Z</time>
      </trkpt>
      <trkpt lat="49.2806" lon="0.17925">
        <ele>24.17</ele>
        <time>2021-01-06T17:42:57Z</time>
      </trkpt>
      <trkpt lat="49.28042" lon="0.1792">
        <ele>24.65</ele>
        <time>2021-01-06T17:43:14Z</time>
      </trkpt>
      <trkpt lat="49.28027" lon="0.17919">
        <ele>25.13</ele>
        <time>2021-01-06T17:43:29Z</time>
      </trkpt>
      <trkpt lat="49.28024" lon="0.17911">
        <ele>25.61</ele>
        <time>2021-01-06T17:43:35Z</time>
      </trkpt>
      <trkpt lat="49.28023" lon="0.17875">
        <ele>26.57</ele>
        <time>2021-01-06T17:43:56Z</time>
      </trkpt>
      <trkpt lat="49.28025" lon="0.17857">
        <ele>27.53</ele>
        <time>2021-01-06T17:44:06Z</time>
      </trkpt>
      <trkpt lat="49.28037" lon="0.17846">
        <ele>28.02</ele>
        <time>2021-01-06T17:44:24Z</time>
      </trkpt>
      <trkpt lat="49.28038" lon="0.17837">
        <ele>26.57</ele>
        <time>2021-01-06T17:44:42Z</time>
      </trkpt>
      <trkpt lat="49.2804" lon="0.17838">
        <ele>27.05</ele>
        <time>2021-01-06T17:45:04Z</time>
      </trkpt>
      <trkpt lat="49.28046" lon="0.17843">
        <ele>27.05</ele>
        <time>2021-01-06T17:45:24Z</time>
      </trkpt>
      <trkpt lat="49.28045" lon="0.1784">
        <ele>27.05</ele>
        <time>2021-01-06T17:45:45Z</time>
      </trkpt>
      <trkpt lat="49.28045" lon="0.17839">
        <ele>27.05</ele>
        <time>2021-01-06T17:45:51Z</time>
      </trkpt>
    </trkseg>
  </trk>
</gpx>